M I D A S
Marine Information and Data Acquisition System
Tripno 457 of the Zeeleeuw from 2003-04-01 06:32:29 to 2003-04-01 11:04:48
Back to CruiseResearch ActivitiesStationsMapUnderway DataData graphs

EquipmentUnitsComment
TimeDGPSUTC
LatitudeDGPSDM.mWGS84
LongitudeDGPSDM.mWGS84
TemperatureSBE03/SBE38deg celciusITS90
ConductivitySBE21S/mITS90
SalinitySBE21 Practical Salinity Units
ChlorophylAChelsea fluorimeterg/lCalibrated in Aceton
Missing or incorrect values are displayed as -999
Sea surface data collected by the RV Zeeleeuw from 2003-04-01 06:32:29 to 2003-04-01 11:04:48
                                                                                    Next 1000 lines
Time Latitude Longitude Temperature Conductivity Salinity ChlorophylA
2003-04-01 06:32:37 51°13.607 2°56.046 -999 1.159773 7.702385 -0.646411
2003-04-01 06:32:43 51°13.609 2°56.036 -999 1.159564 7.70075 -0.612702
2003-04-01 06:32:48 51°13.611 2°56.029 -999 1.159564 7.70075 -0.612702
2003-04-01 06:32:53 51°13.613 2°56.021 -999 1.159459 7.699999 -0.646411
2003-04-01 06:32:57 51°13.615 2°56.015 -999 1.159459 7.699865 -0.578993
2003-04-01 06:33:03 51°13.619 2°56.005 -999 1.159354 7.699114 -0.646411
2003-04-01 06:33:08 51°13.622 2°55.997 -999 1.159249 7.698632 -0.646411
2003-04-01 06:33:13 51°13.625 2°55.989 -999 1.159145 7.697747 -0.646411
2003-04-01 06:33:18 51°13.628 2°55.982 -999 1.159145 7.697747 -0.646411
2003-04-01 06:33:21 51°13.63 2°55.978 -999 1.159145 7.69815 -0.612702
2003-04-01 06:33:27 51°13.634 2°55.97 -999 1.15904 7.697533 -0.680121
2003-04-01 06:33:31 51°13.636 2°55.965 -999 1.15904 7.697802 -0.612702
2003-04-01 06:33:37 51°13.64 2°55.957 -999 1.158935 7.697454 -0.646411
2003-04-01 06:33:41 51°13.642 2°55.952 -999 1.158831 7.697374 -0.646411
2003-04-01 06:33:47 51°13.645 2°55.945 -999 1.158831 7.697374 -0.646411
2003-04-01 06:33:52 51°13.647 2°55.938 -999 1.158935 7.698393 -0.612702
2003-04-01 06:33:57 51°13.65 2°55.932 -999 1.158831 7.698045 -0.646411
2003-04-01 06:34:01 51°13.652 2°55.926 -999 1.158726 7.697429 -0.646411
2003-04-01 06:34:07 51°13.655 2°55.919 -999 1.158726 7.697429 -0.612702
2003-04-01 06:34:12 51°13.657 2°55.912 -999 1.158621 7.696812 -0.612702
2003-04-01 06:34:17 51°13.659 2°55.905 -999 1.158621 7.696812 -0.612702
2003-04-01 06:34:21 51°13.66 2°55.899 -999 1.158621 7.696812 -0.646411
2003-04-01 06:34:27 51°13.661 2°55.892 -999 1.158621 7.696812 -0.612702
2003-04-01 06:34:32 51°13.662 2°55.886 -999 1.158621 7.696812 -0.646411
2003-04-01 06:34:37 51°13.663 2°55.88 -999 1.158621 7.696812 -0.646411
2003-04-01 06:34:42 51°13.665 2°55.874 -999 1.158517 7.696061 -0.612702
2003-04-01 06:34:47 51°13.666 2°55.868 -999 1.158517 7.696061 -0.612702
2003-04-01 06:34:52 51°13.666 2°55.861 -999 1.158517 7.695659 -0.646411
2003-04-01 06:34:57 51°13.667 2°55.854 -999 1.158517 7.695524 -0.612702
2003-04-01 06:35:01 51°13.668 2°55.849 -999 1.158517 7.695524 -0.612702
2003-04-01 06:35:07 51°13.668 2°55.842 -999 1.158412 7.694774 -0.646411
2003-04-01 06:35:12 51°13.668 2°55.835 -999 1.158412 7.694774 -0.646411
2003-04-01 06:35:17 51°13.668 2°55.829 -999 1.158412 7.694774 -0.646411
2003-04-01 06:35:22 51°13.668 2°55.822 -999 1.158412 7.694908 -0.612702
2003-04-01 06:35:27 51°13.668 2°55.816 -999 1.158307 7.694291 -0.646411
2003-04-01 06:35:32 51°13.669 2°55.809 -999 1.158307 7.694291 -0.646411
2003-04-01 06:35:37 51°13.669 2°55.802 -999 1.158307 7.694291 -0.646411
2003-04-01 06:35:43 51°13.668 2°55.795 -999 1.158203 7.693675 -0.612702
2003-04-01 06:35:48 51°13.668 2°55.789 -999 1.158203 7.693675 -0.612702
2003-04-01 06:35:53 51°13.668 2°55.783 -999 1.158203 7.693541 -0.646411
2003-04-01 06:35:57 51°13.668 2°55.778 -999 1.158203 7.693541 -0.646411
2003-04-01 06:36:01 51°13.669 2°55.774 -999 1.158098 7.692656 -0.646411
2003-04-01 06:36:07 51°13.669 2°55.769 -999 1.158098 7.69279 -0.612702
2003-04-01 06:36:12 51°13.668 2°55.766 -999 1.158098 7.692924 -0.646411
2003-04-01 06:36:17 51°13.668 2°55.763 -999 1.158098 7.692924 -0.646411
2003-04-01 06:36:21 51°13.668 2°55.761 -999 1.158098 7.693058 -0.612702
2003-04-01 06:36:27 51°13.669 2°55.76 -999 1.158098 7.693192 -0.646411
2003-04-01 06:36:32 51°13.669 2°55.759 -999 1.157993 7.692576 -0.646411
2003-04-01 06:36:37 51°13.67 2°55.759 -999 1.157993 7.692576 -0.646411
2003-04-01 06:36:41 51°13.671 2°55.759 -999 1.157993 7.692576 -0.646411
2003-04-01 06:36:45 51°13.671 2°55.76 -999 1.157993 7.692576 -0.646411
2003-04-01 06:36:52 51°13.673 2°55.762 -999 1.157993 7.69271 -0.646411
2003-04-01 06:36:57 51°13.675 2°55.764 -999 1.157888 7.692093 -0.646411
2003-04-01 06:37:01 51°13.676 2°55.765 -999 1.157888 7.692361 -0.612702
2003-04-01 06:37:07 51°13.678 2°55.765 -999 1.157888 7.692496 -0.612702
2003-04-01 06:37:12 51°13.68 2°55.767 -999 1.157888 7.69263 -0.612702
2003-04-01 06:37:17 51°13.682 2°55.768 -999 1.157888 7.69263 -0.612702
2003-04-01 06:37:21 51°13.684 2°55.769 -999 1.157888 7.69263 -0.612702
2003-04-01 06:37:27 51°13.687 2°55.77 -999 1.157784 7.692013 -0.646411
2003-04-01 06:37:32 51°13.689 2°55.77 -999 1.157784 7.691745 -0.646411
2003-04-01 06:37:37 51°13.69 2°55.771 -999 1.157784 7.691611 -0.646411
2003-04-01 06:37:42 51°13.691 2°55.77 -999 1.157784 7.691611 -0.646411
2003-04-01 06:37:47 51°13.692 2°55.77 -999 1.157784 7.691611 -0.646411
2003-04-01 06:37:52 51°13.693 2°55.769 -999 1.157784 7.691476 -0.612702
2003-04-01 06:37:57 51°13.693 2°55.769 -999 1.157784 7.691342 -0.612702
2003-04-01 06:38:01 51°13.693 2°55.769 -999 1.157784 7.691476 -0.646411
2003-04-01 06:38:07 51°13.693 2°55.768 -999 1.157679 7.690592 -0.646411
2003-04-01 06:38:12 51°13.692 2°55.768 -999 1.157679 7.690457 -0.612702
2003-04-01 06:38:17 51°13.691 2°55.767 -999 1.157679 7.690457 -0.612702
2003-04-01 06:38:21 51°13.69 2°55.767 -999 1.157679 7.690592 -0.646411
2003-04-01 06:38:27 51°13.689 2°55.766 -999 1.157679 7.690457 -0.646411
2003-04-01 06:38:32 51°13.688 2°55.764 -999 1.157679 7.690457 -0.646411
2003-04-01 06:38:37 51°13.688 2°55.763 -999 1.157574 7.689707 -0.612702
2003-04-01 06:38:41 51°13.689 2°55.764 -999 1.157574 7.689707 -0.646411
2003-04-01 06:38:47 51°13.692 2°55.765 -999 1.157574 7.689707 -0.646411
2003-04-01 06:38:52 51°13.694 2°55.764 -999 1.157574 7.689841 -0.612702
2003-04-01 06:38:57 51°13.697 2°55.762 -999 1.15747 7.689492 -0.612702
2003-04-01 06:39:01 51°13.699 2°55.761 -999 1.15747 7.689895 -0.646411
2003-04-01 06:39:07 51°13.704 2°55.757 -999 1.15747 7.690431 -0.646411
2003-04-01 06:39:12 51°13.709 2°55.75 -999 1.157051 7.686623 -0.612702
2003-04-01 06:39:17 51°13.715 2°55.743 -999 1.157051 7.686623 -0.612702
2003-04-01 06:39:21 51°13.719 2°55.737 -999 1.156946 7.684934 -0.646411
2003-04-01 06:39:27 51°13.726 2°55.729 -999 1.156842 7.68539 -0.612702
2003-04-01 06:39:32 51°13.731 2°55.725 -999 1.156946 7.6848 -0.612702
2003-04-01 06:39:37 51°13.735 2°55.722 -999 1.157051 7.685685 -0.646411
2003-04-01 06:39:42 51°13.74 2°55.717 -999 1.157051 7.687964 -0.646411
2003-04-01 06:39:47 51°13.746 2°55.711 -999 1.157051 7.687964 -0.646411
2003-04-01 06:39:52 51°13.754 2°55.704 -999 1.157051 7.688903 -0.612702
2003-04-01 06:39:57 51°13.762 2°55.696 -999 1.157156 7.688983 -0.646411
2003-04-01 06:40:02 51°13.769 2°55.689 -999 1.157156 7.688715 -0.646411
2003-04-01 06:40:07 51°13.776 2°55.682 -999 1.157156 7.688447 -0.612702
2003-04-01 06:40:11 51°13.781 2°55.676 -999 1.157156 7.688581 -0.612702
2003-04-01 06:40:17 51°13.793 2°55.664 -999 1.157156 7.688581 -0.612702
2003-04-01 06:40:21 51°13.8 2°55.659 -999 1.157156 7.688849 -0.612702
2003-04-01 06:40:27 51°13.81 2°55.649 -999 1.157156 7.689252 -0.646411
2003-04-01 06:40:32 51°13.82 2°55.641 -999 1.157156 7.689117 -0.646411
2003-04-01 06:40:37 51°13.83 2°55.632 -999 1.157156 7.688715 -0.646411
2003-04-01 06:40:41 51°13.838 2°55.626 -999 1.157156 7.688447 -0.646411
2003-04-01 06:40:47 51°13.854 2°55.614 -999 1.157156 7.688447 -0.646411
2003-04-01 06:40:52 51°13.864 2°55.607 -999 1.157156 7.687776 -0.612702
2003-04-01 06:40:57 51°13.871 2°55.601 -999 1.157051 7.686757 -0.646411
2003-04-01 06:41:01 51°13.878 2°55.596 -999 1.157051 7.686489 -0.646411
2003-04-01 06:41:07 51°13.887 2°55.587 -999 1.157051 7.686087 -0.646411
2003-04-01 06:41:12 51°13.889 2°55.581 -999 1.157051 7.685953 -0.646411
2003-04-01 06:41:17 51°13.899 2°55.575 -999 1.157051 7.685953 -0.646411
2003-04-01 06:41:21 51°13.908 2°55.571 -999 1.157051 7.685685 -0.612702
2003-04-01 06:41:27 51°13.921 2°55.563 -999 1.157051 7.685685 -0.646411
2003-04-01 06:41:32 51°13.931 2°55.556 -999 1.157051 7.685417 -0.646411
2003-04-01 06:41:37 51°13.941 2°55.55 -999 1.157051 7.685551 -0.646411
2003-04-01 06:41:41 51°13.949 2°55.545 -999 1.156946 7.684532 -0.646411
2003-04-01 06:41:47 51°13.961 2°55.538 -999 1.156946 7.684532 -0.646411
2003-04-01 06:41:52 51°13.97 2°55.53 -999 1.156946 7.684666 -0.612702
2003-04-01 06:41:57 51°13.98 2°55.523 -999 1.156946 7.684666 -0.646411
2003-04-01 06:42:01 51°13.988 2°55.517 -999 1.156842 7.684049 -0.646411
2003-04-01 06:42:07 51°14 2°55.508 -999 1.156946 7.685068 -0.612702
2003-04-01 06:42:11 51°14.008 2°55.502 -999 1.156946 7.685068 -0.646411
2003-04-01 06:42:17 51°14.021 2°55.494 -999 1.156946 7.685068 -0.646411
2003-04-01 06:42:22 51°14.031 2°55.487 -999 1.156842 7.684317 -0.646411
2003-04-01 06:42:27 51°14.041 2°55.479 -999 1.156842 7.684317 -0.612702
2003-04-01 06:42:31 51°14.049 2°55.472 -999 1.156842 7.684451 -0.612702
2003-04-01 06:42:37 51°14.061 2°55.463 -999 1.156842 7.684451 -0.646411
2003-04-01 06:42:41 51°14.07 2°55.456 -999 1.156842 7.684585 -0.646411
2003-04-01 06:42:47 51°14.086 2°55.444 -999 1.156842 7.684585 -0.646411
2003-04-01 06:42:52 51°14.098 2°55.434 -999 1.156737 7.683969 -0.612702
2003-04-01 06:42:57 51°14.108 2°55.426 -999 1.156737 7.683969 -0.646411
2003-04-01 06:43:01 51°14.117 2°55.418 -999 1.156737 7.683969 -0.646411
2003-04-01 06:43:07 51°14.13 2°55.408 -999 1.156737 7.683835 -0.612702
2003-04-01 06:43:12 51°14.14 2°55.401 -999 1.156737 7.683835 -0.646411
2003-04-01 06:43:17 51°14.15 2°55.393 -999 1.156737 7.683835 -0.646411
2003-04-01 06:43:22 51°14.159 2°55.386 -999 1.156737 7.683835 -0.612702
2003-04-01 06:43:27 51°14.167 2°55.379 -999 1.156737 7.683969 -0.680121
2003-04-01 06:43:32 51°14.177 2°55.371 -999 1.156737 7.683969 -0.646411
2003-04-01 06:43:37 51°14.187 2°55.362 -999 1.156737 7.684103 -0.612702
2003-04-01 06:43:42 51°14.196 2°55.353 -999 1.156632 7.683486 -0.646411
2003-04-01 06:43:47 51°14.205 2°55.344 -999 1.156632 7.683486 -0.646411
2003-04-01 06:43:52 51°14.214 2°55.333 -999 1.156632 7.68362 -0.646411
2003-04-01 06:43:57 51°14.223 2°55.323 -999 1.156632 7.683754 -0.646411
2003-04-01 06:44:01 51°14.23 2°55.314 -999 1.156632 7.683888 -0.612702
2003-04-01 06:44:07 51°14.24 2°55.299 -999 1.156632 7.684156 -0.646411
2003-04-01 06:44:12 51°14.249 2°55.287 -999 1.156527 7.683271 -0.646411
2003-04-01 06:44:17 51°14.257 2°55.274 -999 1.156527 7.683271 -0.646411
2003-04-01 06:44:21 51°14.263 2°55.263 -999 1.156527 7.683405 -0.646411
2003-04-01 06:44:27 51°14.272 2°55.246 -999 1.156527 7.683539 -0.612702
2003-04-01 06:44:32 51°14.28 2°55.232 -999 1.156527 7.683539 -0.646411
2003-04-01 06:44:37 51°14.288 2°55.217 -999 1.156527 7.683673 -0.646411
2003-04-01 06:44:41 51°14.294 2°55.206 -999 1.156527 7.683539 -0.612702
2003-04-01 06:44:47 51°14.303 2°55.189 -999 1.156527 7.683539 -0.612702
2003-04-01 06:44:52 51°14.311 2°55.175 -999 1.156423 7.68252 -0.646411
2003-04-01 06:44:57 51°14.318 2°55.161 -999 1.156423 7.682386 -0.646411
2003-04-01 06:45:01 51°14.324 2°55.15 -999 1.156423 7.682118 -0.612702
2003-04-01 06:45:07 51°14.333 2°55.133 -999 1.156527 7.682869 -0.612702
2003-04-01 06:45:12 51°14.34 2°55.118 -999 1.156318 7.681368 -0.646411
2003-04-01 06:45:17 51°14.347 2°55.104 -999 1.156318 7.681368 -0.646411
2003-04-01 06:45:21 51°14.353 2°55.092 -999 1.156527 7.683003 -0.646411
2003-04-01 06:45:27 51°14.362 2°55.075 -999 1.156527 7.683003 -0.646411
2003-04-01 06:45:32 51°14.369 2°55.061 -999 1.156423 7.682386 -0.612702
2003-04-01 06:45:37 51°14.376 2°55.047 -999 1.156423 7.68252 -0.646411
2003-04-01 06:45:41 51°14.383 2°55.035 -999 1.156527 7.683137 -0.646411
2003-04-01 06:45:47 51°14.393 2°55.019 -999 1.156527 7.683137 -0.646411
2003-04-01 06:45:52 51°14.402 2°55.005 -999 1.156423 7.68252 -0.646411
2003-04-01 06:45:57 51°14.413 2°54.991 -999 1.156423 7.68252 -0.646411
2003-04-01 06:46:01 51°14.422 2°54.98 -999 1.156318 7.681502 -0.646411
2003-04-01 06:46:07 51°14.436 2°54.965 -999 1.156318 7.681502 -0.612702
2003-04-01 06:46:12 51°14.449 2°54.952 -999 1.156423 7.682118 -0.612702
2003-04-01 06:46:17 51°14.463 2°54.939 -999 1.156423 7.682118 -0.612702
2003-04-01 06:46:21 51°14.474 2°54.929 -999 1.156318 7.681234 -0.612702
2003-04-01 06:46:27 51°14.489 2°54.913 -999 1.156213 7.680617 -0.646411
2003-04-01 06:46:32 51°14.502 2°54.898 -999 1.156213 7.680885 -0.646411
2003-04-01 06:46:37 51°14.516 2°54.883 -999 1.156318 7.682172 -0.612702
2003-04-01 06:46:41 51°14.526 2°54.871 -999 1.156318 7.682574 -0.646411
2003-04-01 06:46:47 51°14.542 2°54.853 -999 1.156318 7.682574 -0.646411
2003-04-01 06:46:52 51°14.555 2°54.838 -999 1.156109 7.68134 -0.646411
2003-04-01 06:46:57 51°14.568 2°54.823 -999 1.156213 7.682359 -0.646411
2003-04-01 06:47:01 51°14.579 2°54.81 -999 1.156213 7.682493 -0.646411
2003-04-01 06:47:07 51°14.595 2°54.792 -999 1.156213 7.682359 -0.612702
2003-04-01 06:47:12 51°14.609 2°54.776 -999 1.156213 7.682627 -0.612702
2003-04-01 06:47:17 51°14.623 2°54.761 -999 1.156213 7.682627 -0.612702
2003-04-01 06:47:22 51°14.637 2°54.746 -999 1.156004 7.681125 -0.646411
2003-04-01 06:47:27 51°14.651 2°54.731 -999 1.156318 7.683378 -0.646411
2003-04-01 06:47:32 51°14.664 2°54.716 -999 1.156109 7.681876 -0.612702
2003-04-01 06:47:37 51°14.678 2°54.7 -999 1.156318 7.683378 -0.612702
2003-04-01 06:47:41 51°14.689 2°54.688 -999 1.156213 7.682493 -0.646411
2003-04-01 06:47:47 51°14.706 2°54.669 -999 1.156213 7.682493 -0.646411
2003-04-01 06:47:51 51°14.717 2°54.656 -999 1.156109 7.68201 -0.612702
2003-04-01 06:47:57 51°14.733 2°54.637 -999 1.156213 7.682627 -0.612702
2003-04-01 06:48:01 51°14.744 2°54.625 -999 1.156213 7.682627 -0.612702
2003-04-01 06:48:07 51°14.761 2°54.607 -999 1.156109 7.681876 -0.612702
2003-04-01 06:48:12 51°14.775 2°54.591 -999 1.156004 7.681259 -0.612702
2003-04-01 06:48:17 51°14.788 2°54.576 -999 1.156004 7.681259 -0.612702
2003-04-01 06:48:21 51°14.8 2°54.564 -999 1.156213 7.682761 -0.646411
2003-04-01 06:48:27 51°14.816 2°54.545 -999 1.156213 7.682761 -0.612702
2003-04-01 06:48:32 51°14.83 2°54.53 -999 1.156109 7.68201 -0.612702
2003-04-01 06:48:37 51°14.844 2°54.516 -999 1.156109 7.682144 -0.612702
2003-04-01 06:48:41 51°14.856 2°54.504 -999 1.156109 7.68201 -0.646411
2003-04-01 06:48:47 51°14.873 2°54.487 -999 1.156109 7.68201 -0.646411
2003-04-01 06:48:52 51°14.887 2°54.473 -999 1.156109 7.68201 -0.646411
2003-04-01 06:48:57 51°14.901 2°54.458 -999 1.156109 7.682144 -0.612702
2003-04-01 06:49:01 51°14.913 2°54.447 -999 1.156213 7.682895 -0.646411
2003-04-01 06:49:07 51°14.929 2°54.429 -999 1.156004 7.681527 -0.646411
2003-04-01 06:49:12 51°14.943 2°54.413 -999 1.156109 7.682412 -0.680121
2003-04-01 06:49:17 51°14.957 2°54.398 -999 1.156109 7.682412 -0.680121
2003-04-01 06:49:22 51°14.971 2°54.382 -999 1.156109 7.682412 -0.646411
2003-04-01 06:49:27 51°14.985 2°54.366 -999 1.156109 7.682546 -0.612702
2003-04-01 06:49:32 51°14.999 2°54.351 -999 1.156109 7.682412 -0.646411
2003-04-01 06:49:37 51°15.013 2°54.336 -999 1.156109 7.682278 -0.612702
2003-04-01 06:49:41 51°15.024 2°54.324 -999 1.156109 7.682546 -0.646411
2003-04-01 06:49:47 51°15.04 2°54.306 -999 1.156109 7.682546 -0.646411
2003-04-01 06:49:52 51°15.054 2°54.291 -999 1.156109 7.682546 -0.612702
2003-04-01 06:49:57 51°15.067 2°54.276 -999 1.156004 7.682063 -0.646411
2003-04-01 06:50:01 51°15.077 2°54.263 -999 1.156109 7.682948 -0.612702
2003-04-01 06:50:07 51°15.092 2°54.245 -999 1.156004 7.682197 -0.612702
2003-04-01 06:50:12 51°15.107 2°54.23 -999 1.156004 7.682465 -0.646411
2003-04-01 06:50:17 51°15.121 2°54.216 -999 1.156004 7.682465 -0.646411
2003-04-01 06:50:21 51°15.132 2°54.204 -999 1.156109 7.683216 -0.646411
2003-04-01 06:50:27 51°15.15 2°54.186 -999 1.156213 7.683968 -0.612702
2003-04-01 06:50:32 51°15.164 2°54.172 -999 1.156109 7.683351 -0.646411
2003-04-01 06:50:37 51°15.18 2°54.158 -999 1.156109 7.683351 -0.646411
2003-04-01 06:50:42 51°15.192 2°54.143 -999 1.156004 7.682734 -0.646411
2003-04-01 06:50:47 51°15.206 2°54.129 -999 1.156004 7.682734 -0.646411
2003-04-01 06:50:51 51°15.217 2°54.117 -999 1.156004 7.682734 -0.646411
2003-04-01 06:50:57 51°15.235 2°54.1 -999 1.156004 7.682734 -0.646411
2003-04-01 06:51:02 51°15.249 2°54.084 -999 1.156004 7.682734 -0.646411
2003-04-01 06:51:07 51°15.263 2°54.069 -999 1.155899 7.681982 -0.612702
2003-04-01 06:51:12 51°15.278 2°54.054 -999 1.156109 7.683619 -0.612702
2003-04-01 06:51:17 51°15.292 2°54.038 -999 1.156109 7.683619 -0.612702
2003-04-01 06:51:22 51°15.306 2°54.022 -999 1.156109 7.683753 -0.646411
2003-04-01 06:51:27 51°15.321 2°54.006 -999 1.156004 7.683002 -0.646411
2003-04-01 06:51:32 51°15.336 2°53.991 -999 1.155899 7.682385 -0.612702
2003-04-01 06:51:37 51°15.35 2°53.975 -999 1.156109 7.683887 -0.612702
2003-04-01 06:51:42 51°15.364 2°53.96 -999 1.155795 7.681634 -0.646411
2003-04-01 06:51:47 51°15.379 2°53.944 -999 1.155795 7.681634 -0.646411
2003-04-01 06:51:52 51°15.394 2°53.929 -999 1.156109 7.683887 -0.646411
2003-04-01 06:51:57 51°15.408 2°53.914 -999 1.156004 7.68327 -0.612702
2003-04-01 06:52:01 51°15.42 2°53.901 -999 1.156004 7.68327 -0.646411
2003-04-01 06:52:07 51°15.438 2°53.882 -999 1.156004 7.683404 -0.646411
2003-04-01 06:52:11 51°15.45 2°53.87 -999 1.156004 7.683538 -0.646411
2003-04-01 06:52:17 51°15.469 2°53.852 -999 1.156004 7.683538 -0.646411
2003-04-01 06:52:21 51°15.481 2°53.84 -999 1.156004 7.683404 -0.612702
2003-04-01 06:52:27 51°15.499 2°53.821 -999 1.156004 7.683404 -0.612702
2003-04-01 06:52:32 51°15.515 2°53.806 -999 1.155899 7.682653 -0.646411
2003-04-01 06:52:37 51°15.531 2°53.79 -999 1.156004 7.683538 -0.646411
2003-04-01 06:52:41 51°15.543 2°53.778 -999 1.155899 7.682921 -0.612702
2003-04-01 06:52:47 51°15.561 2°53.759 -999 1.155899 7.682921 -0.612702
2003-04-01 06:52:52 51°15.577 2°53.743 -999 1.155899 7.682921 -0.612702
2003-04-01 06:52:57 51°15.592 2°53.727 -999 1.156004 7.683806 -0.646411
2003-04-01 06:53:01 51°15.606 2°53.715 -999 1.156004 7.684075 -0.646411
2003-04-01 06:53:07 51°15.626 2°53.695 -999 1.155795 7.682706 -0.612702
2003-04-01 06:53:12 51°15.642 2°53.678 -999 1.156004 7.684209 -0.612702
2003-04-01 06:53:17 51°15.657 2°53.662 -999 1.156004 7.684209 -0.612702
2003-04-01 06:53:21 51°15.67 2°53.649 -999 1.155899 7.683457 -0.612702
2003-04-01 06:53:27 51°15.689 2°53.629 -999 1.156004 7.684343 -0.646411
2003-04-01 06:53:31 51°15.702 2°53.616 -999 1.156109 7.68496 -0.612702
2003-04-01 06:53:37 51°15.722 2°53.596 -999 1.155899 7.683726 -0.612702
2003-04-01 06:53:42 51°15.738 2°53.58 -999 1.156004 7.684477 -0.612702
2003-04-01 06:53:47 51°15.755 2°53.564 -999 1.156004 7.684477 -0.612702
2003-04-01 06:53:52 51°15.772 2°53.547 -999 1.155795 7.682974 -0.646411
2003-04-01 06:53:57 51°15.789 2°53.531 -999 1.155899 7.683726 -0.612702
2003-04-01 06:54:02 51°15.805 2°53.514 -999 1.155899 7.68386 -0.612702
2003-04-01 06:54:07 51°15.822 2°53.497 -999 1.155795 7.683243 -0.646411
2003-04-01 06:54:12 51°15.839 2°53.481 -999 1.155795 7.683243 -0.612702
2003-04-01 06:54:17 51°15.855 2°53.464 -999 1.155795 7.683243 -0.612702
2003-04-01 06:54:21 51°15.869 2°53.452 -999 1.155899 7.683994 -0.612702
2003-04-01 06:54:27 51°15.888 2°53.432 -999 1.155795 7.683243 -0.646411
2003-04-01 06:54:32 51°15.905 2°53.416 -999 1.155795 7.683377 -0.612702
2003-04-01 06:54:38 51°15.924 2°53.396 -999 1.155899 7.684128 -0.612702
2003-04-01 06:54:41 51°15.934 2°53.388 -999 1.155585 7.682008 -0.612702
2003-04-01 06:54:47 51°15.955 2°53.369 -999 1.155585 7.682008 -0.612702
2003-04-01 06:54:52 51°15.972 2°53.354 -999 1.15569 7.68276 -0.612702
2003-04-01 06:54:57 51°15.99 2°53.34 -999 1.155795 7.683645 -0.612702
2003-04-01 06:55:01 51°16.003 2°53.327 -999 1.15569 7.682894 -0.612702
2003-04-01 06:55:07 51°16.024 2°53.31 -999 1.155585 7.682142 -0.646411
2003-04-01 06:55:13 51°16.045 2°53.292 -999 1.155795 7.683913 -0.612702
2003-04-01 06:55:17 51°16.059 2°53.279 -999 1.155795 7.683913 -0.612702
2003-04-01 06:55:21 51°16.072 2°53.267 -999 1.15569 7.683162 -0.612702
2003-04-01 06:55:27 51°16.092 2°53.249 -999 1.155795 7.683913 -0.612702
2003-04-01 06:55:32 51°16.109 2°53.234 -999 1.155585 7.682411 -0.612702
2003-04-01 06:55:37 51°16.127 2°53.22 -999 1.155795 7.684048 -0.646411
2003-04-01 06:55:41 51°16.14 2°53.208 -999 1.155585 7.682545 -0.612702
2003-04-01 06:55:47 51°16.161 2°53.19 -999 1.155585 7.682545 -0.612702
2003-04-01 06:55:52 51°16.178 2°53.175 -999 1.155795 7.684316 -0.612702
2003-04-01 06:55:57 51°16.195 2°53.16 -999 1.15569 7.683565 -0.612702
2003-04-01 06:56:01 51°16.209 2°53.148 -999 1.155585 7.683081 -0.646411
2003-04-01 06:56:07 51°16.23 2°53.13 -999 1.15569 7.683967 -0.612702
2003-04-01 06:56:12 51°16.247 2°53.115 -999 1.15569 7.683967 -0.612702
2003-04-01 06:56:17 51°16.264 2°53.1 -999 1.15569 7.683967 -0.612702
2003-04-01 06:56:22 51°16.281 2°53.085 -999 1.155585 7.68335 -0.612702
2003-04-01 06:56:27 51°16.298 2°53.069 -999 1.15569 7.684235 -0.646411
2003-04-01 06:56:32 51°16.315 2°53.055 -999 1.155376 7.681981 -0.612702
2003-04-01 06:56:37 51°16.332 2°53.039 -999 1.155899 7.685873 -0.646411
2003-04-01 06:56:41 51°16.345 2°53.028 -999 1.155481 7.682733 -0.646411
2003-04-01 06:56:47 51°16.365 2°53.01 -999 1.155481 7.682733 -0.646411
2003-04-01 06:56:53 51°16.386 2°52.994 -999 1.155481 7.682867 -0.646411
2003-04-01 06:56:57 51°16.401 2°52.983 -999 1.15569 7.684638 -0.646411
2003-04-01 06:57:01 51°16.414 2°52.971 -999 1.15569 7.684504 -0.612702
2003-04-01 06:57:07 51°16.435 2°52.954 -999 1.155481 7.683135 -0.646411
2003-04-01 06:57:12 51°16.452 2°52.94 -999 1.155585 7.683886 -0.646411
2003-04-01 06:57:17 51°16.469 2°52.926 -999 1.155585 7.683886 -0.646411
2003-04-01 06:57:21 51°16.483 2°52.915 -999 1.155481 7.683403 -0.646411
2003-04-01 06:57:27 51°16.503 2°52.898 -999 1.155585 7.684155 -0.646411
2003-04-01 06:57:32 51°16.52 2°52.884 -999 1.155481 7.683672 -0.646411
2003-04-01 06:57:37 51°16.538 2°52.871 -999 1.155376 7.68292 -0.612702
2003-04-01 06:57:42 51°16.555 2°52.857 -999 1.155376 7.683054 -0.646411
2003-04-01 06:57:47 51°16.572 2°52.843 -999 1.155376 7.683054 -0.646411
2003-04-01 06:57:51 51°16.586 2°52.833 -999 1.155585 7.684692 -0.612702
2003-04-01 06:57:57 51°16.607 2°52.817 -999 1.155376 7.683323 -0.612702
2003-04-01 06:58:02 51°16.625 2°52.804 -999 1.155376 7.683323 -0.612702
2003-04-01 06:58:07 51°16.642 2°52.791 -999 1.155376 7.683323 -0.612702
2003-04-01 06:58:12 51°16.66 2°52.779 -999 1.155585 7.685094 -0.578993
2003-04-01 06:58:17 51°16.677 2°52.766 -999 1.155585 7.685094 -0.578993
2003-04-01 06:58:22 51°16.694 2°52.753 -999 1.155376 7.683725 -0.612702
2003-04-01 06:58:27 51°16.711 2°52.74 -999 1.155376 7.68386 -0.578993
2003-04-01 06:58:32 51°16.728 2°52.727 -999 1.155376 7.68386 -0.646411
2003-04-01 06:58:37 51°16.744 2°52.714 -999 1.155585 7.685631 -0.578993
2003-04-01 06:58:42 51°16.761 2°52.701 -999 1.155376 7.684128 -0.545283
2003-04-01 06:58:47 51°16.777 2°52.689 -999 1.155376 7.684128 -0.545283
2003-04-01 06:58:52 51°16.793 2°52.676 -999 1.155376 7.684128 -0.545283
2003-04-01 06:58:57 51°16.809 2°52.665 -999 1.155376 7.684262 -0.545283
2003-04-01 06:59:01 51°16.822 2°52.654 -999 1.155271 7.683511 -0.578993
2003-04-01 06:59:07 51°16.841 2°52.64 -999 1.155271 7.683645 -0.612702
2003-04-01 06:59:11 51°16.854 2°52.629 -999 1.155271 7.683779 -0.612702
2003-04-01 06:59:17 51°16.874 2°52.614 -999 1.155271 7.683779 -0.612702
2003-04-01 06:59:21 51°16.886 2°52.603 -999 1.155167 7.683162 -0.578993
2003-04-01 06:59:27 51°16.905 2°52.587 -999 1.154957 7.681793 -0.612702
2003-04-01 06:59:32 51°16.921 2°52.574 -999 1.155376 7.684799 -0.612702
2003-04-01 06:59:37 51°16.938 2°52.56 -999 1.155062 7.682544 -0.578993
2003-04-01 06:59:41 51°16.95 2°52.549 -999 1.155376 7.684799 -0.578993
2003-04-01 06:59:47 51°16.97 2°52.533 -999 1.155376 7.684799 -0.578993
2003-04-01 06:59:52 51°16.987 2°52.521 -999 1.155271 7.683913 -0.612702
2003-04-01 06:59:57 51°17.003 2°52.508 -999 1.155271 7.684048 -0.578993
2003-04-01 07:00:02 51°17.019 2°52.496 -999 1.155062 7.68241 -0.612702
2003-04-01 07:00:07 51°17.036 2°52.484 -999 1.155167 7.683162 -0.612702
2003-04-01 07:00:12 51°17.052 2°52.473 -999 1.155167 7.683296 -0.612702
2003-04-01 07:00:17 51°17.069 2°52.461 -999 1.155167 7.683296 -0.612702
2003-04-01 07:00:21 51°17.082 2°52.452 -999 1.155062 7.682544 -0.612702
2003-04-01 07:00:27 51°17.102 2°52.438 -999 1.155167 7.683564 -0.578993
2003-04-01 07:00:32 51°17.119 2°52.426 -999 1.155167 7.683699 -0.578993
2003-04-01 07:00:37 51°17.136 2°52.413 -999 1.155062 7.683081 -0.578993
2003-04-01 07:00:42 51°17.152 2°52.4 -999 1.154853 7.681578 -0.545283
2003-04-01 07:00:47 51°17.168 2°52.387 -999 1.154853 7.681578 -0.545283
2003-04-01 07:00:52 51°17.184 2°52.373 -999 1.155167 7.683967 -0.578993
2003-04-01 07:00:57 51°17.2 2°52.359 -999 1.154957 7.682598 -0.545283
2003-04-01 07:01:01 51°17.213 2°52.348 -999 1.154957 7.682866 -0.612702
2003-04-01 07:01:07 51°17.233 2°52.332 -999 1.154957 7.682866 -0.646411
2003-04-01 07:01:12 51°17.249 2°52.318 -999 1.155062 7.683887 -0.680121
2003-04-01 07:01:17 51°17.265 2°52.305 -999 1.155062 7.683887 -0.680121
2003-04-01 07:01:21 51°17.278 2°52.294 -999 1.154957 7.683001 -0.646411
2003-04-01 07:01:27 51°17.298 2°52.278 -999 1.154957 7.682866 -0.680121
2003-04-01 07:01:32 51°17.315 2°52.265 -999 1.154853 7.682115 -0.680121
2003-04-01 07:01:37 51°17.332 2°52.252 -999 1.154748 7.681631 -0.680121
2003-04-01 07:01:41 51°17.345 2°52.242 -999 1.154957 7.683135 -0.646411
2003-04-01 07:01:47 51°17.365 2°52.228 -999 1.154957 7.683135 -0.646411
2003-04-01 07:01:52 51°17.382 2°52.214 -999 1.154643 7.680745 -0.680121
2003-04-01 07:01:57 51°17.399 2°52.202 -999 1.155062 7.683618 -0.680121
2003-04-01 07:02:02 51°17.415 2°52.189 -999 1.154748 7.681631 -0.680121
2003-04-01 07:02:07 51°17.432 2°52.176 -999 1.154957 7.683135 -0.680121
2003-04-01 07:02:12 51°17.449 2°52.164 -999 1.154748 7.681765 -0.71383
2003-04-01 07:02:17 51°17.465 2°52.151 -999 1.154748 7.681765 -0.71383
2003-04-01 07:02:21 51°17.479 2°52.141 -999 1.154957 7.683269 -0.680121
2003-04-01 07:02:27 51°17.499 2°52.126 -999 1.154853 7.682652 -0.680121
2003-04-01 07:02:32 51°17.516 2°52.113 -999 1.154853 7.682786 -0.680121
2003-04-01 07:02:37 51°17.532 2°52.1 -999 1.154853 7.682652 -0.680121
2003-04-01 07:02:42 51°17.549 2°52.087 -999 1.154643 7.681416 -0.646411
2003-04-01 07:02:47 51°17.566 2°52.075 -999 1.154643 7.681416 -0.646411
2003-04-01 07:02:52 51°17.584 2°52.062 -999 1.154643 7.681416 -0.680121
2003-04-01 07:02:57 51°17.601 2°52.05 -999 1.154748 7.682302 -0.680121
2003-04-01 07:03:01 51°17.614 2°52.04 -999 1.154957 7.683806 -0.680121
2003-04-01 07:03:07 51°17.634 2°52.025 -999 1.154748 7.682302 -0.680121
2003-04-01 07:03:12 51°17.651 2°52.013 -999 1.154853 7.683189 -0.680121
2003-04-01 07:03:17 51°17.667 2°52 -999 1.154853 7.683189 -0.680121
2003-04-01 07:03:21 51°17.68 2°51.99 -999 1.154853 7.683189 -0.680121
2003-04-01 07:03:27 51°17.7 2°51.974 -999 1.154539 7.680933 -0.646411
2003-04-01 07:03:32 51°17.718 2°51.961 -999 1.154643 7.681819 -0.680121
2003-04-01 07:03:37 51°17.734 2°51.948 -999 1.154957 7.684209 -0.680121
2003-04-01 07:03:41 51°17.748 2°51.938 -999 1.154539 7.681336 -0.646411
2003-04-01 07:03:47 51°17.767 2°51.922 -999 1.154539 7.681336 -0.646411
2003-04-01 07:03:52 51°17.784 2°51.91 -999 1.154643 7.682088 -0.680121
2003-04-01 07:03:57 51°17.8 2°51.897 -999 1.154643 7.682222 -0.680121
2003-04-01 07:04:01 51°17.814 2°51.887 -999 1.154643 7.682088 -0.680121
2003-04-01 07:04:07 51°17.835 2°51.872 -999 1.154539 7.68147 -0.646411
2003-04-01 07:04:12 51°17.851 2°51.859 -999 1.154643 7.682356 -0.680121
2003-04-01 07:04:17 51°17.867 2°51.847 -999 1.154643 7.682356 -0.680121
2003-04-01 07:04:21 51°17.88 2°51.836 -999 1.154748 7.683108 -0.680121
2003-04-01 07:04:27 51°17.899 2°51.821 -999 1.154539 7.681873 -0.680121
2003-04-01 07:04:32 51°17.916 2°51.808 -999 1.154748 7.683511 -0.680121
2003-04-01 07:04:37 51°17.933 2°51.795 -999 1.154434 7.681121 -0.680121
2003-04-01 07:04:41 51°17.946 2°51.785 -999 1.154539 7.681873 -0.680121
2003-04-01 07:04:47 51°17.966 2°51.77 -999 1.154539 7.681873 -0.680121
2003-04-01 07:04:52 51°17.983 2°51.757 -999 1.154539 7.682007 -0.646411
2003-04-01 07:04:57 51°17.999 2°51.745 -999 1.154539 7.682007 -0.680121
2003-04-01 07:05:01 51°18.012 2°51.734 -999 1.154539 7.682276 -0.646411
2003-04-01 07:05:07 51°18.032 2°51.719 -999 1.154539 7.682276 -0.646411
2003-04-01 07:05:12 51°18.049 2°51.707 -999 1.154434 7.681658 -0.680121
2003-04-01 07:05:17 51°18.066 2°51.694 -999 1.154434 7.681658 -0.680121
2003-04-01 07:05:21 51°18.079 2°51.683 -999 1.154643 7.683296 -0.680121
2003-04-01 07:05:27 51°18.099 2°51.667 -999 1.154434 7.681658 -0.680121
2003-04-01 07:05:32 51°18.116 2°51.654 -999 1.154539 7.682678 -0.680121
2003-04-01 07:05:37 51°18.134 2°51.64 -999 1.154434 7.682061 -0.646411
2003-04-01 07:05:42 51°18.15 2°51.626 -999 1.154434 7.682195 -0.680121
2003-04-01 07:05:47 51°18.168 2°51.613 -999 1.154434 7.682195 -0.680121
2003-04-01 07:05:52 51°18.185 2°51.6 -999 1.154329 7.681443 -0.680121
2003-04-01 07:05:57 51°18.202 2°51.586 -999 1.154225 7.680825 -0.646411
2003-04-01 07:06:01 51°18.216 2°51.576 -999 1.154329 7.681577 -0.680121
2003-04-01 07:06:07 51°18.237 2°51.559 -999 1.154434 7.682329 -0.71383
2003-04-01 07:06:12 51°18.254 2°51.546 -999 1.154434 7.682464 -0.680121
2003-04-01 07:06:17 51°18.271 2°51.533 -999 1.154434 7.682464 -0.680121
2003-04-01 07:06:21 51°18.285 2°51.522 -999 1.15412 7.680342 -0.680121
2003-04-01 07:06:27 51°18.305 2°51.506 -999 1.154329 7.681846 -0.680121
2003-04-01 07:06:32 51°18.322 2°51.492 -999 1.154539 7.68335 -0.680121
2003-04-01 07:06:37 51°18.339 2°51.479 -999 1.154225 7.681228 -0.646411
2003-04-01 07:06:41 51°18.352 2°51.468 -999 1.154329 7.68198 -0.680121
2003-04-01 07:06:47 51°18.373 2°51.452 -999 1.154329 7.68198 -0.680121
2003-04-01 07:06:52 51°18.39 2°51.438 -999 1.154225 7.681362 -0.646411
2003-04-01 07:06:57 51°18.407 2°51.424 -999 1.154434 7.682867 -0.646411
2003-04-01 07:07:01 51°18.421 2°51.413 -999 1.154329 7.682249 -0.680121
2003-04-01 07:07:07 51°18.441 2°51.397 -999 1.154225 7.681631 -0.680121
2003-04-01 07:07:12 51°18.458 2°51.384 -999 1.154225 7.681765 -0.646411
2003-04-01 07:07:17 51°18.476 2°51.37 -999 1.154225 7.681765 -0.646411
2003-04-01 07:07:21 51°18.489 2°51.359 -999 1.15412 7.681013 -0.646411
2003-04-01 07:07:27 51°18.51 2°51.343 -999 1.154225 7.6819 -0.646411
2003-04-01 07:07:32 51°18.527 2°51.329 -999 1.154225 7.6819 -0.646411
2003-04-01 07:07:37 51°18.545 2°51.315 -999 1.15412 7.681282 -0.680121
2003-04-01 07:07:41 51°18.559 2°51.305 -999 1.154225 7.682034 -0.680121
2003-04-01 07:07:47 51°18.579 2°51.288 -999 1.154225 7.682034 -0.680121
2003-04-01 07:07:52 51°18.596 2°51.274 -999 1.15412 7.681416 -0.646411
2003-04-01 07:07:57 51°18.614 2°51.26 -999 1.154225 7.682303 -0.680121
2003-04-01 07:08:01 51°18.628 2°51.249 -999 1.154015 7.680798 -0.680121
2003-04-01 07:08:07 51°18.649 2°51.232 -999 1.154225 7.682437 -0.680121
2003-04-01 07:08:12 51°18.666 2°51.218 -999 1.154329 7.683323 -0.680121
2003-04-01 07:08:17 51°18.684 2°51.203 -999 1.154329 7.683323 -0.680121
2003-04-01 07:08:21 51°18.697 2°51.192 -999 1.15412 7.681685 -0.680121
2003-04-01 07:08:27 51°18.718 2°51.175 -999 1.15412 7.681819 -0.646411
2003-04-01 07:08:32 51°18.735 2°51.162 -999 1.154329 7.683592 -0.646411
2003-04-01 07:08:37 51°18.753 2°51.148 -999 1.154015 7.681335 -0.646411
2003-04-01 07:08:41 51°18.767 2°51.136 -999 1.154015 7.681335 -0.680121
2003-04-01 07:08:47 51°18.788 2°51.12 -999 1.154015 7.681335 -0.680121
2003-04-01 07:08:51 51°18.801 2°51.108 -999 1.15412 7.682222 -0.646411
2003-04-01 07:08:57 51°18.821 2°51.092 -999 1.154015 7.68147 -0.680121
2003-04-01 07:09:02 51°18.838 2°51.078 -999 1.15391 7.680852 -0.680121
2003-04-01 07:09:07 51°18.854 2°51.064 -999 1.15412 7.682356 -0.680121
2003-04-01 07:09:12 51°18.871 2°51.049 -999 1.15391 7.680852 -0.71383
2003-04-01 07:09:17 51°18.889 2°51.036 -999 1.15391 7.680852 -0.71383
2003-04-01 07:09:22 51°18.906 2°51.021 -999 1.15391 7.681121 -0.646411
2003-04-01 07:09:27 51°18.924 2°51.008 -999 1.15412 7.683028 -0.680121
2003-04-01 07:09:32 51°18.941 2°50.994 -999 1.15412 7.683028 -0.680121
2003-04-01 07:09:37 51°18.958 2°50.98 -999 1.153911 7.681524 -0.680121
2003-04-01 07:09:41 51°18.972 2°50.969 -999 1.154015 7.682142 -0.680121
2003-04-01 07:09:47 51°18.993 2°50.952 -999 1.154015 7.682142 -0.680121
2003-04-01 07:09:52 51°19.01 2°50.939 -999 1.153806 7.680637 -0.680121
2003-04-01 07:09:57 51°19.027 2°50.925 -999 1.153806 7.680771 -0.646411
2003-04-01 07:10:01 51°19.039 2°50.912 -999 1.153806 7.680771 -0.680121
2003-04-01 07:10:07 51°19.059 2°50.893 -999 1.153911 7.681524 -0.680121
2003-04-01 07:10:12 51°19.076 2°50.875 -999 1.154015 7.682679 -0.646411
2003-04-01 07:10:17 51°19.091 2°50.858 -999 1.154015 7.682679 -0.646411
2003-04-01 07:10:22 51°19.107 2°50.84 -999 1.153911 7.682195 -0.680121
2003-04-01 07:10:27 51°19.122 2°50.822 -999 1.153911 7.682061 -0.680121
2003-04-01 07:10:32 51°19.138 2°50.804 -999 1.153701 7.680691 -0.680121
2003-04-01 07:10:37 51°19.153 2°50.785 -999 1.153911 7.682195 -0.646411
2003-04-01 07:10:41 51°19.166 2°50.77 -999 1.153911 7.682195 -0.680121
2003-04-01 07:10:47 51°19.184 2°50.747 -999 1.153911 7.682195 -0.680121
2003-04-01 07:10:52 51°19.2 2°50.729 -999 1.153806 7.681712 -0.680121
2003-04-01 07:10:57 51°19.216 2°50.71 -999 1.153596 7.680207 -0.646411
2003-04-01 07:11:01 51°19.229 2°50.695 -999 1.153596 7.680073 -0.680121
2003-04-01 07:11:07 51°19.247 2°50.673 -999 1.153701 7.680959 -0.680121
2003-04-01 07:11:11 51°19.259 2°50.658 -999 1.153806 7.681577 -0.646411
2003-04-01 07:11:17 51°19.278 2°50.636 -999 1.153806 7.681577 -0.646411
2003-04-01 07:11:21 51°19.29 2°50.621 -999 1.153701 7.680825 -0.646411
2003-04-01 07:11:27 51°19.308 2°50.599 -999 1.153911 7.68233 -0.646411
2003-04-01 07:11:32 51°19.324 2°50.582 -999 1.153596 7.680207 -0.680121
2003-04-01 07:11:37 51°19.339 2°50.563 -999 1.153492 7.679589 -0.680121
2003-04-01 07:11:41 51°19.352 2°50.549 -999 1.153701 7.680959 -0.680121
2003-04-01 07:11:47 51°19.371 2°50.527 -999 1.153701 7.680959 -0.680121
2003-04-01 07:11:52 51°19.386 2°50.509 -999 1.153701 7.681094 -0.646411
2003-04-01 07:11:57 51°19.402 2°50.491 -999 1.153701 7.681228 -0.680121
2003-04-01 07:12:02 51°19.418 2°50.473 -999 1.153596 7.68061 -0.680121
2003-04-01 07:12:07 51°19.434 2°50.454 -999 1.153492 7.679992 -0.646411
2003-04-01 07:12:11 51°19.446 2°50.44 -999 1.153596 7.680879 -0.680121
2003-04-01 07:12:17 51°19.465 2°50.418 -999 1.153596 7.680879 -0.680121
2003-04-01 07:12:21 51°19.478 2°50.404 -999 1.153492 7.680261 -0.680121
2003-04-01 07:12:27 51°19.496 2°50.382 -999 1.153492 7.680395 -0.646411
2003-04-01 07:12:32 51°19.511 2°50.364 -999 1.153596 7.681148 -0.646411
2003-04-01 07:12:37 51°19.527 2°50.346 -999 1.153492 7.680261 -0.680121
2003-04-01 07:12:42 51°19.542 2°50.327 -999 1.153596 7.681013 -0.646411
2003-04-01 07:12:47 51°19.558 2°50.309 -999 1.153596 7.681013 -0.646411
2003-04-01 07:12:52 51°19.574 2°50.291 -999 1.153596 7.681282 -0.680121
2003-04-01 07:12:57 51°19.59 2°50.273 -999 1.153596 7.681416 -0.646411
2003-04-01 07:13:01 51°19.602 2°50.258 -999 1.153387 7.679777 -0.646411
2003-04-01 07:13:07 51°19.622 2°50.236 -999 1.153492 7.680529 -0.646411
2003-04-01 07:13:12 51°19.639 2°50.217 -999 1.153701 7.682303 -0.646411
2003-04-01 07:13:17 51°19.655 2°50.2 -999 1.153701 7.682303 -0.646411
2003-04-01 07:13:21 51°19.667 2°50.185 -999 1.153282 7.679293 -0.680121
2003-04-01 07:13:27 51°19.684 2°50.16 -999 1.153701 7.682303 -0.646411
2003-04-01 07:13:32 51°19.699 2°50.138 -999 1.153596 7.68182 -0.680121
2003-04-01 07:13:37 51°19.713 2°50.115 -999 1.153282 7.679696 -0.646411
2003-04-01 07:13:41 51°19.723 2°50.095 -999 1.153596 7.682223 -0.680121
2003-04-01 07:13:47 51°19.737 2°50.064 -999 1.153596 7.682223 -0.680121
2003-04-01 07:13:52 51°19.747 2°50.037 -999 1.153282 7.680234 -0.646411
2003-04-01 07:13:57 51°19.755 2°50.008 -999 1.153282 7.680234 -0.680121
2003-04-01 07:14:01 51°19.761 2°49.984 -999 1.153387 7.681524 -0.680121
2003-04-01 07:14:07 51°19.769 2°49.947 -999 1.153178 7.680019 -0.646411
2003-04-01 07:14:12 51°19.775 2°49.916 -999 1.153387 7.681659 -0.646411
2003-04-01 07:14:17 51°19.78 2°49.885 -999 1.153387 7.681659 -0.646411
2003-04-01 07:14:21 51°19.784 2°49.86 -999 1.153282 7.68104 -0.646411
2003-04-01 07:14:27 51°19.789 2°49.821 -999 1.153178 7.680422 -0.646411
2003-04-01 07:14:32 51°19.792 2°49.789 -999 1.153282 7.681175 -0.646411
2003-04-01 07:14:37 51°19.794 2°49.756 -999 1.153073 7.679535 -0.646411
2003-04-01 07:14:41 51°19.795 2°49.729 -999 1.153282 7.680906 -0.646411
2003-04-01 07:14:47 51°19.797 2°49.69 -999 1.153282 7.680906 -0.646411
2003-04-01 07:14:52 51°19.797 2°49.657 -999 1.153178 7.680019 -0.646411
2003-04-01 07:14:57 51°19.798 2°49.624 -999 1.153073 7.679401 -0.680121
2003-04-01 07:15:01 51°19.798 2°49.597 -999 1.153282 7.680772 -0.646411
2003-04-01 07:15:07 51°19.798 2°49.557 -999 1.152968 7.678514 -0.680121
2003-04-01 07:15:11 51°19.798 2°49.531 -999 1.153073 7.679132 -0.680121
2003-04-01 07:15:17 51°19.797 2°49.491 -999 1.153073 7.679132 -0.680121
2003-04-01 07:15:21 51°19.796 2°49.465 -999 1.153073 7.679266 -0.646411
2003-04-01 07:15:27 51°19.795 2°49.425 -999 1.153178 7.680019 -0.646411
2003-04-01 07:15:32 51°19.795 2°49.391 -999 1.152968 7.678782 -0.680121
2003-04-01 07:15:37 51°19.794 2°49.358 -999 1.153073 7.679535 -0.680121
2003-04-01 07:15:41 51°19.793 2°49.331 -999 1.153073 7.679535 -0.646411
2003-04-01 07:15:47 51°19.793 2°49.291 -999 1.153073 7.679535 -0.646411
2003-04-01 07:15:52 51°19.792 2°49.258 -999 1.153178 7.680153 -0.680121
2003-04-01 07:15:57 51°19.791 2°49.225 -999 1.153178 7.680288 -0.680121
2003-04-01 07:16:01 51°19.79 2°49.198 -999 1.153073 7.679535 -0.71383
2003-04-01 07:16:07 51°19.79 2°49.158 -999 1.152864 7.678164 -0.646411
2003-04-01 07:16:12 51°19.789 2°49.125 -999 1.153178 7.680691 -0.646411
2003-04-01 07:16:17 51°19.789 2°49.092 -999 1.153178 7.680691 -0.646411
2003-04-01 07:16:21 51°19.788 2°49.065 -999 1.152968 7.679186 -0.680121
2003-04-01 07:16:27 51°19.787 2°49.025 -999 1.153073 7.680073 -0.680121
2003-04-01 07:16:32 51°19.786 2°48.991 -999 1.152968 7.67932 -0.680121
2003-04-01 07:16:37 51°19.786 2°48.958 -999 1.152968 7.679589 -0.71383
2003-04-01 07:16:42 51°19.785 2°48.925 -999 1.152968 7.679723 -0.646411
2003-04-01 07:16:47 51°19.784 2°48.891 -999 1.152968 7.679723 -0.646411
2003-04-01 07:16:52 51°19.783 2°48.858 -999 1.152864 7.67897 -0.680121
2003-04-01 07:16:57 51°19.782 2°48.825 -999 1.152864 7.679239 -0.680121
2003-04-01 07:17:02 51°19.781 2°48.791 -999 1.152864 7.679374 -0.646411
2003-04-01 07:17:07 51°19.781 2°48.758 -999 1.152864 7.679508 -0.680121
2003-04-01 07:17:12 51°19.78 2°48.724 -999 1.152968 7.68053 -0.612702
2003-04-01 07:17:17 51°19.78 2°48.691 -999 1.152968 7.68053 -0.612702
2003-04-01 07:17:21 51°19.78 2°48.664 -999 1.152968 7.680664 -0.646411
2003-04-01 07:17:27 51°19.779 2°48.624 -999 1.152968 7.680664 -0.646411
2003-04-01 07:17:32 51°19.778 2°48.591 -999 1.152864 7.680046 -0.646411
2003-04-01 07:17:37 51°19.777 2°48.558 -999 1.152864 7.680315 -0.646411
2003-04-01 07:17:41 51°19.776 2°48.531 -999 1.152759 7.679562 -0.680121
2003-04-01 07:17:47 51°19.775 2°48.491 -999 1.152759 7.679562 -0.680121
2003-04-01 07:17:51 51°19.774 2°48.464 -999 1.152968 7.681202 -0.680121
2003-04-01 07:17:57 51°19.773 2°48.424 -999 1.152864 7.680449 -0.646411
2003-04-01 07:18:01 51°19.773 2°48.397 -999 1.152759 7.679965 -0.646411
2003-04-01 07:18:07 51°19.772 2°48.357 -999 1.152759 7.679831 -0.646411
2003-04-01 07:18:12 51°19.771 2°48.324 -999 1.152864 7.680718 -0.646411
2003-04-01 07:18:17 51°19.77 2°48.29 -999 1.152864 7.680718 -0.646411
2003-04-01 07:18:21 51°19.77 2°48.264 -999 1.152759 7.679965 -0.680121
2003-04-01 07:18:27 51°19.769 2°48.224 -999 1.152759 7.680234 -0.646411
2003-04-01 07:18:31 51°19.768 2°48.198 -999 1.152759 7.6801 -0.680121
2003-04-01 07:18:37 51°19.767 2°48.158 -999 1.152759 7.680234 -0.646411
2003-04-01 07:18:41 51°19.766 2°48.132 -999 1.152654 7.67975 -0.646411
2003-04-01 07:18:47 51°19.766 2°48.092 -999 1.152654 7.67975 -0.646411
2003-04-01 07:18:52 51°19.765 2°48.059 -999 1.152654 7.679616 -0.680121
2003-04-01 07:18:57 51°19.764 2°48.025 -999 1.152759 7.680503 -0.71383
2003-04-01 07:19:01 51°19.763 2°47.999 -999 1.152654 7.67975 -0.680121
2003-04-01 07:19:07 51°19.762 2°47.959 -999 1.152759 7.680772 -0.680121
2003-04-01 07:19:12 51°19.762 2°47.926 -999 1.152654 7.680019 -0.71383
2003-04-01 07:19:17 51°19.762 2°47.893 -999 1.152654 7.680019 -0.71383
2003-04-01 07:19:21 51°19.761 2°47.867 -999 1.152654 7.680154 -0.646411
2003-04-01 07:19:27 51°19.76 2°47.827 -999 1.15255 7.679535 -0.646411
2003-04-01 07:19:32 51°19.759 2°47.794 -999 1.152654 7.680288 -0.680121
2003-04-01 07:19:37 51°19.759 2°47.761 -999 1.152654 7.680288 -0.646411
2003-04-01 07:19:41 51°19.758 2°47.734 -999 1.152654 7.680557 -0.680121
2003-04-01 07:19:47 51°19.757 2°47.695 -999 1.152654 7.680557 -0.680121
2003-04-01 07:19:52 51°19.756 2°47.662 -999 1.152654 7.680557 -0.71383
2003-04-01 07:19:57 51°19.755 2°47.629 -999 1.152654 7.680692 -0.680121
2003-04-01 07:20:01 51°19.754 2°47.602 -999 1.15255 7.679939 -0.646411
2003-04-01 07:20:07 51°19.753 2°47.563 -999 1.152654 7.680961 -0.680121
2003-04-01 07:20:12 51°19.752 2°47.529 -999 1.15255 7.680208 -0.680121
2003-04-01 07:20:17 51°19.75 2°47.496 -999 1.15255 7.680208 -0.680121
2003-04-01 07:20:21 51°19.75 2°47.469 -999 1.152654 7.681095 -0.680121
2003-04-01 07:20:27 51°19.75 2°47.43 -999 1.152445 7.679724 -0.646411
2003-04-01 07:20:32 51°19.749 2°47.396 -999 1.152654 7.68123 -0.680121
2003-04-01 07:20:37 51°19.749 2°47.363 -999 1.152654 7.681499 -0.680121
2003-04-01 07:20:41 51°19.748 2°47.336 -999 1.152654 7.681365 -0.646411
2003-04-01 07:20:47 51°19.748 2°47.296 -999 1.152654 7.681365 -0.646411
2003-04-01 07:20:52 51°19.747 2°47.263 -999 1.15255 7.680746 -0.680121
2003-04-01 07:20:57 51°19.746 2°47.229 -999 1.152654 7.681768 -0.646411
2003-04-01 07:21:01 51°19.746 2°47.203 -999 1.152445 7.680262 -0.680121
2003-04-01 07:21:07 51°19.744 2°47.162 -999 1.152654 7.681903 -0.71383
2003-04-01 07:21:12 51°19.744 2°47.128 -999 1.152654 7.682037 -0.646411
2003-04-01 07:21:17 51°19.743 2°47.095 -999 1.152654 7.682037 -0.646411
2003-04-01 07:21:21 51°19.742 2°47.068 -999 1.15255 7.681284 -0.646411
2003-04-01 07:21:27 51°19.74 2°47.028 -999 1.152654 7.682172 -0.680121
2003-04-01 07:21:32 51°19.739 2°46.994 -999 1.152445 7.680935 -0.646411
2003-04-01 07:21:37 51°19.738 2°46.961 -999 1.152654 7.682576 -0.680121
2003-04-01 07:21:41 51°19.738 2°46.934 -999 1.152759 7.683329 -0.680121
2003-04-01 07:21:47 51°19.736 2°46.894 -999 1.152759 7.683329 -0.680121
2003-04-01 07:21:52 51°19.735 2°46.86 -999 1.15255 7.682092 -0.680121
2003-04-01 07:21:57 51°19.733 2°46.826 -999 1.152759 7.683733 -0.680121
2003-04-01 07:22:02 51°19.732 2°46.793 -999 1.152654 7.682979 -0.680121
2003-04-01 07:22:07 51°19.731 2°46.76 -999 1.15255 7.68263 -0.646411
2003-04-01 07:22:12 51°19.73 2°46.726 -999 1.152759 7.684137 -0.680121
2003-04-01 07:22:17 51°19.729 2°46.693 -999 1.152759 7.684137 -0.680121
2003-04-01 07:22:22 51°19.729 2°46.659 -999 1.152654 7.683787 -0.646411
2003-04-01 07:22:27 51°19.728 2°46.625 -999 1.152759 7.684675 -0.680121
2003-04-01 07:22:32 51°19.727 2°46.592 -999 1.152759 7.68481 -0.680121
2003-04-01 07:22:37 51°19.726 2°46.558 -999 1.152759 7.68481 -0.680121
2003-04-01 07:22:41 51°19.725 2°46.531 -999 1.152759 7.685214 -0.680121
2003-04-01 07:22:47 51°19.723 2°46.491 -999 1.152759 7.685214 -0.680121
2003-04-01 07:22:52 51°19.722 2°46.457 -999 1.152654 7.684595 -0.646411
2003-04-01 07:22:57 51°19.721 2°46.424 -999 1.152654 7.684595 -0.646411
2003-04-01 07:23:01 51°19.72 2°46.397 -999 1.152759 7.685483 -0.680121
2003-04-01 07:23:07 51°19.719 2°46.356 -999 1.152759 7.685887 -0.646411
2003-04-01 07:23:12 51°19.718 2°46.323 -999 1.152654 7.685268 -0.646411
2003-04-01 07:23:17 51°19.717 2°46.289 -999 1.152654 7.685268 -0.646411
2003-04-01 07:23:21 51°19.716 2°46.262 -999 1.152654 7.685268 -0.680121
2003-04-01 07:23:27 51°19.715 2°46.222 -999 1.152654 7.685403 -0.646411
2003-04-01 07:23:32 51°19.715 2°46.188 -999 1.152654 7.685538 -0.680121
2003-04-01 07:23:37 51°19.715 2°46.154 -999 1.152759 7.686561 -0.646411
2003-04-01 07:23:41 51°19.714 2°46.127 -999 1.152969 7.688203 -0.680121
2003-04-01 07:23:47 51°19.713 2°46.087 -999 1.152969 7.688203 -0.680121
2003-04-01 07:23:52 51°19.713 2°46.054 -999 1.152864 7.687584 -0.680121
2003-04-01 07:23:57 51°19.713 2°46.02 -999 1.152759 7.686965 -0.680121
2003-04-01 07:24:01 51°19.712 2°45.994 -999 1.152969 7.688742 -0.680121
2003-04-01 07:24:07 51°19.71 2°45.954 -999 1.152864 7.688123 -0.680121
2003-04-01 07:24:12 51°19.709 2°45.921 -999 1.152759 7.687504 -0.680121
2003-04-01 07:24:17 51°19.708 2°45.888 -999 1.152759 7.687504 -0.680121
2003-04-01 07:24:22 51°19.707 2°45.855 -999 1.152759 7.687774 -0.646411
2003-04-01 07:24:27 51°19.706 2°45.821 -999 1.152969 7.689416 -0.646411
2003-04-01 07:24:32 51°19.705 2°45.788 -999 1.152864 7.688932 -0.680121
2003-04-01 07:24:37 51°19.704 2°45.755 -999 1.152759 7.688178 -0.646411
2003-04-01 07:24:41 51°19.704 2°45.729 -999 1.152864 7.689336 -0.646411
2003-04-01 07:24:47 51°19.703 2°45.689 -999 1.152864 7.689336 -0.646411
2003-04-01 07:24:52 51°19.702 2°45.656 -999 1.152864 7.689471 -0.646411
2003-04-01 07:24:57 51°19.702 2°45.622 -999 1.152864 7.689741 -0.646411
2003-04-01 07:25:01 51°19.702 2°45.596 -999 1.152969 7.690764 -0.680121
2003-04-01 07:25:07 51°19.701 2°45.555 -999 1.152864 7.69001 -0.646411
2003-04-01 07:25:12 51°19.7 2°45.522 -999 1.152864 7.69028 -0.71383
2003-04-01 07:25:17 51°19.7 2°45.489 -999 1.152864 7.69028 -0.71383
2003-04-01 07:25:21 51°19.699 2°45.462 -999 1.152864 7.69055 -0.646411
2003-04-01 07:25:27 51°19.698 2°45.423 -999 1.152969 7.691573 -0.646411
2003-04-01 07:25:32 51°19.697 2°45.389 -999 1.152969 7.691708 -0.680121
2003-04-01 07:25:37 51°19.696 2°45.355 -999 1.152864 7.691224 -0.646411
2003-04-01 07:25:41 51°19.693 2°45.328 -999 1.152969 7.692383 -0.646411
2003-04-01 07:25:47 51°19.689 2°45.289 -999 1.152969 7.692383 -0.646411
2003-04-01 07:25:52 51°19.685 2°45.256 -999 1.152864 7.692034 -0.680121
2003-04-01 07:25:57 51°19.679 2°45.224 -999 1.152864 7.692573 -0.646411
2003-04-01 07:26:01 51°19.673 2°45.198 -999 1.153073 7.694486 -0.680121
2003-04-01 07:26:07 51°19.664 2°45.161 -999 1.152864 7.693383 -0.646411
2003-04-01 07:26:12 51°19.656 2°45.13 -999 1.152969 7.694677 -0.680121
2003-04-01 07:26:17 51°19.646 2°45.1 -999 1.152969 7.694677 -0.680121
2003-04-01 07:26:21 51°19.639 2°45.077 -999 1.152969 7.695217 -0.680121
2003-04-01 07:26:27 51°19.626 2°45.042 -999 1.152969 7.695352 -0.646411
2003-04-01 07:26:32 51°19.614 2°45.015 -999 1.153073 7.696107 -0.612702
2003-04-01 07:26:37 51°19.603 2°44.987 -999 1.152864 7.694598 -0.646411
2003-04-01 07:26:42 51°19.59 2°44.962 -999 1.153178 7.696861 -0.646411
2003-04-01 07:26:45 51°19.582 2°44.946 -999 1.153178 7.696861 -0.646411
2003-04-01 07:26:52 51°19.565 2°44.909 -999 1.152759 7.693844 -0.646411
2003-04-01 07:26:57 51°19.551 2°44.884 -999 1.153073 7.696107 -0.680121
2003-04-01 07:27:01 51°19.541 2°44.864 -999 1.152864 7.694463 -0.680121
2003-04-01 07:27:07 51°19.524 2°44.833 -999 1.153073 7.695972 -0.680121
2003-04-01 07:27:12 51°19.51 2°44.808 -999 1.153073 7.695972 -0.646411
2003-04-01 07:27:17 51°19.496 2°44.785 -999 1.153073 7.695972 -0.646411
2003-04-01 07:27:21 51°19.485 2°44.766 -999 1.153073 7.696242 -0.646411
2003-04-01 07:27:27 51°19.468 2°44.736 -999 1.152969 7.695622 -0.680121
2003-04-01 07:27:32 51°19.453 2°44.713 -999 1.153073 7.696377 -0.646411
2003-04-01 07:27:37 51°19.439 2°44.689 -999 1.153073 7.696512 -0.680121
2003-04-01 07:27:41 51°19.428 2°44.67 -999 1.153073 7.696647 -0.646411
2003-04-01 07:27:47 51°19.41 2°44.642 -999 1.153073 7.696647 -0.646411
2003-04-01 07:27:52 51°19.396 2°44.617 -999 1.153073 7.696782 -0.646411
2003-04-01 07:27:57 51°19.382 2°44.594 -999 1.153073 7.696917 -0.680121
2003-04-01 07:28:01 51°19.371 2°44.575 -999 1.152969 7.696433 -0.71383
2003-04-01 07:28:07 51°19.354 2°44.546 -999 1.153073 7.697457 -0.646411
2003-04-01 07:28:12 51°19.339 2°44.522 -999 1.153178 7.698347 -0.680121
2003-04-01 07:28:17 51°19.325 2°44.498 -999 1.153178 7.698347 -0.680121
2003-04-01 07:28:22 51°19.311 2°44.474 -999 1.152969 7.697243 -0.680121
2003-04-01 07:28:27 51°19.296 2°44.45 -999 1.152969 7.697649 -0.646411
2003-04-01 07:28:32 51°19.282 2°44.426 -999 1.153073 7.698674 -0.680121
2003-04-01 07:28:37 51°19.268 2°44.402 -999 1.153073 7.699214 -0.680121
2003-04-01 07:28:42 51°19.253 2°44.377 -999 1.153073 7.699349 -0.680121
2003-04-01 07:28:47 51°19.239 2°44.352 -999 1.153073 7.699349 -0.680121
2003-04-01 07:28:52 51°19.225 2°44.328 -999 1.153073 7.699755 -0.680121
2003-04-01 07:28:57 51°19.211 2°44.303 -999 1.153073 7.69989 -0.680121
2003-04-01 07:29:01 51°19.2 2°44.284 -999 1.153073 7.700296 -0.680121
2003-04-01 07:29:05 51°19.188 2°44.267 -999 1.153073 7.700296 -0.646411
2003-04-01 07:29:11 51°19.173 2°44.238 -999 1.153073 7.701107 -0.680121
2003-04-01 07:29:17 51°19.158 2°44.213 -999 1.153073 7.701107 -0.680121
2003-04-01 07:29:22 51°19.147 2°44.192 -999 1.152969 7.700352 -0.680121
2003-04-01 07:29:27 51°19.135 2°44.173 -999 1.153073 7.701648 -0.680121
2003-04-01 07:29:32 51°19.125 2°44.154 -999 1.152969 7.701029 -0.680121
2003-04-01 07:29:37 51°19.114 2°44.136 -999 1.153074 7.702189 -0.680121
2003-04-01 07:29:41 51°19.106 2°44.121 -999 1.152969 7.701705 -0.680121
2003-04-01 07:29:47 51°19.095 2°44.099 -999 1.152969 7.701705 -0.680121
2003-04-01 07:29:52 51°19.086 2°44.081 -999 1.153074 7.703001 -0.680121
2003-04-01 07:29:57 51°19.077 2°44.065 -999 1.152969 7.702517 -0.646411
2003-04-01 07:30:02 51°19.07 2°44.049 -999 1.152969 7.702652 -0.646411
2003-04-01 07:30:07 51°19.063 2°44.034 -999 1.152969 7.702788 -0.646411
2003-04-01 07:30:12 51°19.056 2°44.019 -999 1.152969 7.702788 -0.680121
2003-04-01 07:30:17 51°19.05 2°44.005 -999 1.152969 7.702788 -0.680121
2003-04-01 07:30:22 51°19.044 2°43.991 -999 1.152969 7.703058 -0.646411
2003-04-01 07:30:27 51°19.038 2°43.978 -999 1.152864 7.702574 -0.646411
2003-04-01 07:30:32 51°19.033 2°43.965 -999 1.152969 7.703735 -0.646411
2003-04-01 07:30:37 51°19.028 2°43.952 -999 1.152864 7.703115 -0.680121
2003-04-01 07:30:41 51°19.024 2°43.943 -999 1.152759 7.702766 -0.646411
2003-04-01 07:30:47 51°19.017 2°43.929 -999 1.152759 7.702766 -0.646411
2003-04-01 07:30:52 51°19.012 2°43.919 -999 1.152864 7.704063 -0.680121
2003-04-01 07:30:57 51°19.005 2°43.909 -999 1.15276 7.704255 -0.646411
2003-04-01 07:31:02 51°19 2°43.899 -999 1.15276 7.704797 -0.680121
2003-04-01 07:31:07 51°18.994 2°43.89 -999 1.15276 7.705204 -0.646411
2003-04-01 07:31:13 51°18.988 2°43.879 -999 1.152655 7.704854 -0.680121
2003-04-01 07:31:17 51°18.984 2°43.872 -999 1.152655 7.704854 -0.680121
2003-04-01 07:31:21 51°18.979 2°43.864 -999 1.152655 7.70499 -0.646411
2003-04-01 07:31:27 51°18.973 2°43.854 -999 1.15276 7.705745 -0.680121
2003-04-01 07:31:31 51°18.969 2°43.847 -999 1.15255 7.704099 -0.646411
2003-04-01 07:31:37 51°18.964 2°43.837 -999 1.15255 7.703828 -0.680121
2003-04-01 07:31:43 51°18.959 2°43.827 -999 1.15255 7.703693 -0.680121
2003-04-01 07:31:47 51°18.956 2°43.821 -999 1.15255 7.703693 -0.680121
2003-04-01 07:31:52 51°18.952 2°43.813 -999 1.152445 7.702667 -0.680121
2003-04-01 07:31:57 51°18.948 2°43.804 -999 1.15255 7.703422 -0.680121
2003-04-01 07:32:01 51°18.945 2°43.798 -999 1.15255 7.703422 -0.680121
2003-04-01 07:32:07 51°18.942 2°43.79 -999 1.152445 7.702667 -0.680121
2003-04-01 07:32:12 51°18.939 2°43.785 -999 1.152445 7.702802 -0.680121
2003-04-01 07:32:17 51°18.938 2°43.781 -999 1.152445 7.702802 -0.680121
2003-04-01 07:32:22 51°18.937 2°43.778 -999 1.152341 7.702047 -0.680121
2003-04-01 07:32:27 51°18.936 2°43.776 -999 1.152341 7.702182 -0.680121
2003-04-01 07:32:33 51°18.936 2°43.775 -999 1.152236 7.701427 -0.646411
2003-04-01 07:32:37 51°18.936 2°43.775 -999 1.152236 7.701427 -0.646411
2003-04-01 07:32:41 51°18.936 2°43.775 -999 1.152341 7.702047 -0.646411
2003-04-01 07:32:48 51°18.937 2°43.774 -999 1.152341 7.702047 -0.646411
2003-04-01 07:32:53 51°18.936 2°43.774 -999 1.152236 7.701427 -0.71383
2003-04-01 07:32:57 51°18.936 2°43.774 -999 1.152236 7.701562 -0.646411
2003-04-01 07:33:02 51°18.936 2°43.774 -999 1.152131 7.700671 -0.680121
2003-04-01 07:33:07 51°18.936 2°43.773 -999 1.152027 7.700051 -0.680121
2003-04-01 07:33:11 51°18.935 2°43.772 -999 1.152131 7.700942 -0.680121
2003-04-01 07:33:17 51°18.935 2°43.772 -999 1.152131 7.700942 -0.680121
2003-04-01 07:33:21 51°18.934 2°43.771 -999 1.152027 7.700593 -0.680121
2003-04-01 07:33:27 51°18.934 2°43.77 -999 1.151922 7.700379 -0.680121
2003-04-01 07:33:32 51°18.934 2°43.768 17.147494 1.151922 7.700921 -0.646411
2003-04-01 07:33:37 51°18.935 2°43.767 17.493333 1.152027 7.702218 -0.680121
2003-04-01 07:33:41 51°18.936 2°43.765 17.148927 1.151922 7.701733 -0.646411
2003-04-01 07:33:47 51°18.936 2°43.763 17.148927 1.151922 7.701733 -0.646411
2003-04-01 07:33:51 51°18.935 2°43.762 16.94175 1.151817 7.701384 -0.646411
2003-04-01 07:33:57 51°18.935 2°43.76 17.803422 1.151608 7.699873 -0.680121
2003-04-01 07:34:02 51°18.935 2°43.758 17.738999 1.151817 7.701655 -0.646411
2003-04-01 07:34:07 51°18.935 2°43.756 17.396745 1.151608 7.700144 -0.646411
2003-04-01 07:34:12 51°18.935 2°43.754 17.016004 1.151817 7.701655 -0.646411
2003-04-01 07:34:17 51°18.935 2°43.752 17.016004 1.151817 7.701655 -0.646411
2003-04-01 07:34:22 51°18.935 2°43.75 17.223252 1.151713 7.700899 -0.680121
2003-04-01 07:34:27 51°18.935 2°43.748 17.97659 1.151713 7.700764 -0.646411
2003-04-01 07:34:31 51°18.935 2°43.746 17.084354 1.151503 7.699388 -0.646411
2003-04-01 07:34:37 51°18.935 2°43.744 17.015032 1.151608 7.700144 -0.646411
2003-04-01 07:34:41 51°18.935 2°43.743 17.635136 1.151608 7.700144 -0.680121
2003-04-01 07:34:47 51°18.935 2°43.741 17.635136 1.151608 7.700144 -0.680121
2003-04-01 07:34:52 51°18.935 2°43.739 17.771887 1.151503 7.699388 -0.646411
2003-04-01 07:34:57 51°18.935 2°43.737 16.945429 1.151503 7.699388 -0.680121
2003-04-01 07:35:03 51°18.935 2°43.735 17.668073 1.151189 7.697121 -0.646411
2003-04-01 07:35:07 51°18.935 2°43.733 17.600634 1.151503 7.699388 -0.680121
2003-04-01 07:35:12 51°18.935 2°43.731 16.702725 1.151399 7.698768 -0.612702
2003-04-01 07:35:17 51°18.936 2°43.729 16.702725 1.151399 7.698768 -0.612702
2003-04-01 07:35:21 51°18.936 2°43.727 17.737662 1.151399 7.698768 -0.646411
2003-04-01 07:35:27 51°18.936 2°43.725 17.083679 1.151189 7.697256 -0.680121
2003-04-01 07:35:33 51°18.936 2°43.722 17.565779 1.151294 7.698148 -0.646411
2003-04-01 07:35:37 51°18.936 2°43.72 17.394056 1.151189 7.697392 -0.680121
2003-04-01 07:35:43 51°18.937 2°43.717 16.979838 1.151294 7.698283 -0.646411
2003-04-01 07:35:47 51°18.937 2°43.715 16.979838 1.151294 7.698283 -0.646411
2003-04-01 07:35:52 51°18.938 2°43.713 17.737369 1.151189 7.697663 -0.646411
2003-04-01 07:35:57 51°18.938 2°43.711 17.256386 1.151085 7.697042 -0.612702
2003-04-01 07:36:03 51°18.938 2°43.709 16.841506 1.15098 7.696287 -0.680121
2003-04-01 07:36:07 51°18.938 2°43.707 17.66937 1.150875 7.695396 -0.646411
2003-04-01 07:36:12 51°18.938 2°43.706 17.256933 1.151085 7.697042 -0.646411
2003-04-01 07:36:17 51°18.938 2°43.704 17.256933 1.151085 7.697042 -0.646411
2003-04-01 07:36:21 51°18.938 2°43.702 17.153564 1.151085 7.697042 -0.646411
2003-04-01 07:36:27 51°18.938 2°43.701 17.429375 1.15098 7.696287 -0.646411
2003-04-01 07:36:32 51°18.938 2°43.7 17.18808 1.15098 7.696422 -0.680121
2003-04-01 07:36:37 51°18.938 2°43.698 17.36061 1.150875 7.695666 -0.646411
2003-04-01 07:36:42 51°18.938 2°43.697 17.256765 1.150875 7.695802 -0.612702
2003-04-01 07:36:47 51°18.938 2°43.696 17.256765 1.150875 7.695802 -0.612702
2003-04-01 07:36:51 51°18.938 2°43.695 17.395106 1.150875 7.695937 -0.646411
2003-04-01 07:36:57 51°18.938 2°43.693 17.773015 1.15077 7.695182 -0.646411
2003-04-01 07:37:02 51°18.938 2°43.692 16.946697 1.150666 7.694561 -0.646411
2003-04-01 07:37:07 51°18.938 2°43.692 17.326769 1.15077 7.695182 -0.646411
2003-04-01 07:37:12 51°18.938 2°43.691 17.258112 1.150666 7.694561 -0.646411
2003-04-01 07:37:17 51°18.937 2°43.69 17.258112 1.150666 7.694561 -0.646411
2003-04-01 07:37:22 51°18.936 2°43.69 16.808552 1.150666 7.694561 -0.646411
2003-04-01 07:37:27 51°18.936 2°43.689 17.772889 1.150456 7.69305 -0.680121
2003-04-01 07:37:32 51°18.936 2°43.689 17.189807 1.150456 7.693185 -0.680121
2003-04-01 07:37:37 51°18.935 2°43.688 16.704889 1.150666 7.694561 -0.646411
2003-04-01 07:37:43 51°18.934 2°43.687 17.60323 1.150352 7.692429 -0.646411
2003-04-01 07:37:47 51°18.933 2°43.687 17.60323 1.150352 7.692429 -0.646411
2003-04-01 07:37:52 51°18.933 2°43.686 16.8443 1.150456 7.693185 -0.646411
2003-04-01 07:37:57 51°18.932 2°43.686 17.775062 1.150456 7.693321 -0.646411
2003-04-01 07:38:03 51°18.931 2°43.686 17.980256 1.150561 7.693941 -0.646411
2003-04-01 07:38:07 51°18.93 2°43.685 17.638359 1.150352 7.692565 -0.680121
2003-04-01 07:38:12 51°18.93 2°43.685 17.432356 1.150247 7.691944 -0.680121
2003-04-01 07:38:17 51°18.929 2°43.684 17.432356 1.150247 7.691944 -0.680121
2003-04-01 07:38:22 51°18.928 2°43.684 16.810671 1.150142 7.691324 -0.646411
2003-04-01 07:38:27 51°18.927 2°43.683 17.398467 1.150352 7.692836 -0.680121
2003-04-01 07:38:33 51°18.926 2°43.683 17.467362 1.150352 7.692971 -0.646411
2003-04-01 07:38:37 51°18.925 2°43.682 16.880157 1.150142 7.69173 -0.646411
2003-04-01 07:38:41 51°18.924 2°43.682 17.502393 1.150142 7.69173 -0.646411
2003-04-01 07:38:47 51°18.923 2°43.681 17.502393 1.150142 7.69173 -0.646411
2003-04-01 07:38:52 51°18.922 2°43.68 16.742599 1.150142 7.691595 -0.680121
2003-04-01 07:38:57 51°18.921 2°43.68 17.662466 1.150142 7.691865 -0.646411
2003-04-01 07:39:02 51°18.919 2°43.679 17.055317 1.149933 7.690354 -0.646411
2003-04-01 07:39:07 51°18.918 2°43.678 17.089629 1.150142 7.692001 -0.646411
2003-04-01 07:39:12 51°18.917 2°43.677 17.15896 1.149933 7.690625 -0.646411
2003-04-01 07:39:17 51°18.916 2°43.677 17.15896 1.149933 7.690625 -0.646411
2003-04-01 07:39:23 51°18.915 2°43.676 17.401071 1.149933 7.69076 -0.646411
2003-04-01 07:39:27 51°18.914 2°43.676 16.779271 1.149933 7.690895 -0.646411
2003-04-01 07:39:32 51°18.912 2°43.675 17.504364 1.149933 7.691031 -0.680121
2003-04-01 07:39:37 51°18.912 2°43.674 17.573321 1.149933 7.691031 -0.612702
2003-04-01 07:39:43 51°18.91 2°43.674 17.299559 1.149828 7.69041 -0.646411
2003-04-01 07:39:47 51°18.909 2°43.673 17.299559 1.149828 7.69041 -0.646411
2003-04-01 07:39:52 51°18.908 2°43.673 17.264594 1.149724 7.689654 -0.646411
2003-04-01 07:39:57 51°18.907 2°43.671 17.574536 1.149724 7.68979 -0.680121
2003-04-01 07:40:01 51°18.906 2°43.67 17.438192 1.149724 7.689654 -0.646411
2003-04-01 07:40:07 51°18.905 2°43.67 17.61035 1.149724 7.68979 -0.646411
2003-04-01 07:40:12 51°18.903 2°43.67 17.575249 1.149828 7.690545 -0.646411
2003-04-01 07:40:17 51°18.902 2°43.669 17.575249 1.149828 7.690545 -0.646411
2003-04-01 07:40:21 51°18.901 2°43.668 17.575626 1.149619 7.689034 -0.646411
2003-04-01 07:40:27 51°18.899 2°43.667 17.404347 1.149724 7.68979 -0.646411
2003-04-01 07:40:32 51°18.898 2°43.667 17.611564 1.14941 7.687657 -0.646411
2003-04-01 07:40:37 51°18.897 2°43.666 17.336272 1.149514 7.688413 -0.680121
2003-04-01 07:40:43 51°18.896 2°43.666 17.851303 1.149514 7.688413 -0.646411
2003-04-01 07:40:47 51°18.895 2°43.665 17.851303 1.149514 7.688413 -0.646411
2003-04-01 07:40:52 51°18.894 2°43.664 17.234664 1.149619 7.689304 -0.680121
2003-04-01 07:40:57 51°18.893 2°43.664 17.407497 1.14941 7.687928 -0.646411
2003-04-01 07:41:01 51°18.893 2°43.663 17.511158 1.14941 7.688063 -0.680121
2003-04-01 07:41:07 51°18.892 2°43.662 17.407539 1.14941 7.687928 -0.680121
2003-04-01 07:41:12 51°18.891 2°43.661 17.097814 1.149305 7.687172 -0.680121
2003-04-01 07:41:17 51°18.891 2°43.661 17.097814 1.149305 7.687172 -0.680121
2003-04-01 07:41:21 51°18.89 2°43.66 17.167474 1.149305 7.687172 -0.680121
2003-04-01 07:41:27 51°18.89 2°43.659 17.168401 1.14941 7.687928 -0.680121
2003-04-01 07:41:33 51°18.889 2°43.658 17.134381 1.14941 7.688063 -0.680121
2003-04-01 07:41:37 51°18.889 2°43.657 17.685477 1.149305 7.687307 -0.71383
2003-04-01 07:41:41 51°18.888 2°43.656 16.99674 1.149305 7.687307 -0.680121
2003-04-01 07:41:47 51°18.888 2°43.656 16.99674 1.149305 7.687307 -0.680121
2003-04-01 07:41:51 51°18.888 2°43.655 16.962382 1.1492 7.686687 -0.680121
2003-04-01 07:41:57 51°18.887 2°43.653 17.376957 1.149305 7.687443 -0.680121
2003-04-01 07:42:01 51°18.887 2°43.653 16.963439 1.149095 7.686066 -0.680121
2003-04-01 07:42:07 51°18.887 2°43.651 17.102159 1.149305 7.687578 -0.680121
2003-04-01 07:42:11 51°18.887 2°43.65 17.412999 1.149305 7.687578 -0.680121
2003-04-01 07:42:17 51°18.887 2°43.649 17.412999 1.149305 7.687578 -0.680121
2003-04-01 07:42:21 51°18.887 2°43.649 17.276335 1.14941 7.688469 -0.680121
2003-04-01 07:42:27 51°18.886 2°43.647 17.517154 1.1492 7.686822 -0.680121
2003-04-01 07:42:31 51°18.886 2°43.646 17.757513 1.149095 7.686066 -0.646411
2003-04-01 07:42:37 51°18.886 2°43.645 17.346109 1.1492 7.686957 -0.680121
2003-04-01 07:42:43 51°18.886 2°43.644 17.174765 1.148991 7.685581 -0.680121
2003-04-01 07:42:47 51°18.886 2°43.643 17.174765 1.148991 7.685581 -0.680121
2003-04-01 07:42:52 51°18.887 2°43.641 17.895649 1.148991 7.685716 -0.680121
2003-04-01 07:42:57 51°18.887 2°43.64 17.34737 1.148991 7.685716 -0.680121
2003-04-01 07:43:01 51°18.887 2°43.638 17.313481 1.148886 7.68496 -0.680121
2003-04-01 07:43:07 51°18.888 2°43.637 17.520215 1.148991 7.685851 -0.680121
2003-04-01 07:43:12 51°18.888 2°43.635 17.107221 1.148991 7.685987 -0.646411
2003-04-01 07:43:17 51°18.889 2°43.633 17.107221 1.148991 7.685987 -0.646411
2003-04-01 07:43:22 51°18.89 2°43.631 17.624168 1.148677 7.683584 -0.680121
2003-04-01 07:43:27 51°18.89 2°43.63 17.453681 1.148781 7.68434 -0.680121
2003-04-01 07:43:31 51°18.891 2°43.628 17.487753 1.148781 7.684475 -0.680121
2003-04-01 07:43:37 51°18.892 2°43.626 16.866866 1.148886 7.685231 -0.680121
2003-04-01 07:43:41 51°18.893 2°43.625 17.522857 1.148781 7.68434 -0.646411
2003-04-01 07:43:47 51°18.894 2°43.623 17.522857 1.148781 7.68434 -0.646411
2003-04-01 07:43:52 51°18.895 2°43.621 17.865908 1.148677 7.683719 -0.646411
2003-04-01 07:43:57 51°18.896 2°43.619 16.694662 1.148781 7.684475 -0.680121
2003-04-01 07:44:02 51°18.897 2°43.617 17.145554 1.148677 7.683719 -0.680121
2003-04-01 07:44:07 51°18.899 2°43.615 17.730681 1.148572 7.683098 -0.646411
2003-04-01 07:44:12 51°18.9 2°43.614 17.388007 1.148677 7.683854 -0.646411
2003-04-01 07:44:17 51°18.901 2°43.611 17.388007 1.148677 7.683854 -0.646411
2003-04-01 07:44:21 51°18.902 2°43.61 17.112451 1.148467 7.682478 -0.646411
2003-04-01 07:44:27 51°18.904 2°43.608 17.182097 1.148572 7.682963 -0.680121
2003-04-01 07:44:32 51°18.905 2°43.607 17.182055 1.148572 7.682963 -0.646411
2003-04-01 07:44:37 51°18.907 2°43.606 17.390023 1.148572 7.683234 -0.680121
2003-04-01 07:44:41 51°18.908 2°43.605 17.079881 1.148677 7.683989 -0.680121
2003-04-01 07:44:47 51°18.91 2°43.603 17.079881 1.148677 7.683989 -0.680121
2003-04-01 07:44:52 51°18.912 2°43.602 17.149602 1.148467 7.682613 -0.646411
2003-04-01 07:44:57 51°18.913 2°43.601 17.700492 1.148467 7.682478 -0.680121
2003-04-01 07:45:01 51°18.914 2°43.6 17.529356 1.148467 7.682613 -0.646411
2003-04-01 07:45:07 51°18.916 2°43.598 17.082033 1.148467 7.682748 -0.680121
2003-04-01 07:45:12 51°18.918 2°43.597 17.839034 1.148467 7.682748 -0.646411
2003-04-01 07:45:17 51°18.92 2°43.597 17.839034 1.148467 7.682748 -0.646411
2003-04-01 07:45:21 51°18.921 2°43.596 17.693173 1.148467 7.682883 -0.646411
2003-04-01 07:45:27 51°18.923 2°43.595 17.634634 1.148363 7.682263 -0.646411
2003-04-01 07:45:32 51°18.924 2°43.595 16.911003 1.148467 7.683154 -0.646411
2003-04-01 07:45:37 51°18.926 2°43.595 17.567036 1.148363 7.682398 -0.646411
2003-04-01 07:45:43 51°18.928 2°43.594 17.6705 1.148363 7.682533 -0.680121
2003-04-01 07:45:47 51°18.929 2°43.595 17.6705 1.148363 7.682533 -0.680121
2003-04-01 07:45:52 51°18.93 2°43.595 16.739249 1.148363 7.682533 -0.646411
2003-04-01 07:45:57 51°18.932 2°43.595 17.431139 1.148153 7.681156 -0.680121
2003-04-01 07:46:03 51°18.933 2°43.596 17.156178 1.148363 7.682804 -0.646411
2003-04-01 07:46:07 51°18.934 2°43.597 17.604445 1.148258 7.682183 -0.680121
2003-04-01 07:46:12 51°18.935 2°43.598 17.63928 1.148258 7.682183 -0.646411
2003-04-01 07:46:17 51°18.936 2°43.599 17.63928 1.148258 7.682183 -0.646411
2003-04-01 07:46:21 51°18.937 2°43.599 17.296277 1.148153 7.681562 -0.646411
2003-04-01 07:46:27 51°18.938 2°43.601 17.880217 1.148153 7.681427 -0.680121
2003-04-01 07:46:32 51°18.939 2°43.602 17.228474 1.148153 7.681697 -0.646411
2003-04-01 07:46:37 51°18.939 2°43.603 17.228727 1.148049 7.681077 -0.680121
2003-04-01 07:46:43 51°18.94 2°43.605 17.642126 1.148049 7.681077 -0.646411
2003-04-01 07:46:47 51°18.94 2°43.606 17.642126 1.148049 7.681077 -0.646411
2003-04-01 07:46:52 51°18.941 2°43.608 16.640959 1.148049 7.681347 -0.646411
2003-04-01 07:46:57 51°18.941 2°43.61 17.471894 1.148049 7.681618 -0.646411
2003-04-01 07:47:01 51°18.941 2°43.611 17.677445 1.148153 7.682374 -0.646411
2003-04-01 07:47:07 51°18.941 2°43.613 16.816602 1.148049 7.681888 -0.680121
2003-04-01 07:47:13 51°18.941 2°43.615 17.335809 1.148049 7.682023 -0.646411
2003-04-01 07:47:17 51°18.941 2°43.617 17.335809 1.148049 7.682023 -0.646411
2003-04-01 07:47:21 51°18.941 2°43.618 17.336482 1.147944 7.681538 -0.680121
2003-04-01 07:47:27 51°18.94 2°43.62 17.440207 1.147944 7.681673 -0.612702
2003-04-01 07:47:31 51°18.94 2°43.622 17.130628 1.147944 7.681808 -0.646411
2003-04-01 07:47:37 51°18.939 2°43.624 17.749531 1.148049 7.6827 -0.680121
2003-04-01 07:47:41 51°18.939 2°43.626 17.681712 1.147944 7.682079 -0.680121
2003-04-01 07:47:47 51°18.938 2°43.628 17.681712 1.147944 7.682079 -0.680121
2003-04-01 07:47:52 51°18.937 2°43.63 17.717344 1.147839 7.681593 -0.646411
2003-04-01 07:47:57 51°18.937 2°43.632 17.305658 1.147944 7.68235 -0.646411
2003-04-01 07:48:01 51°18.936 2°43.633 17.88981 1.147839 7.681593 -0.646411
2003-04-01 07:48:07 51°18.935 2°43.635 17.099248 1.147735 7.680972 -0.646411
2003-04-01 07:48:12 51°18.934 2°43.638 17.169539 1.147839 7.681729 -0.646411
2003-04-01 07:48:17 51°18.933 2°43.639 17.169539 1.147839 7.681729 -0.646411
2003-04-01 07:48:21 51°18.933 2°43.641 17.135267 1.147839 7.681999 -0.646411
2003-04-01 07:48:27 51°18.932 2°43.644 17.481167 1.147944 7.682755 -0.646411
2003-04-01 07:48:32 51°18.93 2°43.645 17.067811 1.147735 7.681243 -0.680121
2003-04-01 07:48:37 51°18.928 2°43.646 17.790768 1.147839 7.681999 -0.646411
2003-04-01 07:48:42 51°18.927 2°43.646 17.723992 1.14763 7.680622 -0.646411
2003-04-01 07:48:47 51°18.925 2°43.647 17.723992 1.14763 7.680622 -0.646411
2003-04-01 07:48:52 51°18.923 2°43.648 17.552537 1.147735 7.681378 -0.646411
2003-04-01 07:48:57 51°18.921 2°43.649 17.002106 1.147735 7.681378 -0.646411
2003-04-01 07:49:01 51°18.92 2°43.65 17.554171 1.147735 7.681378 -0.612702
2003-04-01 07:49:07 51°18.918 2°43.651 17.383133 1.147839 7.682134 -0.646411
2003-04-01 07:49:12 51°18.916 2°43.652 17.142898 1.14763 7.680893 -0.680121
2003-04-01 07:49:17 51°18.914 2°43.654 17.142898 1.14763 7.680893 -0.680121
2003-04-01 07:49:23 51°18.913 2°43.655 17.315499 1.147735 7.681649 -0.612702
2003-04-01 07:49:27 51°18.911 2°43.656 17.178726 1.147525 7.680136 -0.680121
2003-04-01 07:49:32 51°18.909 2°43.657 17.351994 1.14763 7.680893 -0.680121
2003-04-01 07:49:37 51°18.908 2°43.657 17.180622 1.147735 7.681784 -0.646411
2003-04-01 07:49:41 51°18.906 2°43.657 17.662717 1.147421 7.679515 -0.612702
2003-04-01 07:49:47 51°18.903 2°43.658 17.662717 1.147421 7.679515 -0.612702
2003-04-01 07:49:52 51°18.902 2°43.658 17.182097 1.14763 7.681163 -0.646411
2003-04-01 07:49:57 51°18.899 2°43.659 17.355609 1.14763 7.681163 -0.612702
2003-04-01 07:50:03 51°18.897 2°43.659 17.493878 1.147525 7.680542 -0.680121
2003-04-01 07:50:07 51°18.895 2°43.659 17.598079 1.14763 7.681163 -0.646411
2003-04-01 07:50:12 51°18.893 2°43.66 17.496185 1.147421 7.679786 -0.680121
2003-04-01 07:50:17 51°18.891 2°43.66 17.496185 1.147421 7.679786 -0.680121
2003-04-01 07:50:22 51°18.889 2°43.661 17.255797 1.147525 7.680677 -0.646411
2003-04-01 07:50:27 51°18.887 2°43.661 17.669203 1.147316 7.679029 -0.680121
2003-04-01 07:50:32 51°18.885 2°43.661 17.188206 1.147421 7.679921 -0.680121
2003-04-01 07:50:37 51°18.883 2°43.661 17.704967 1.147525 7.680677 -0.612702
2003-04-01 07:50:43 51°18.88 2°43.661 17.671085 1.147421 7.680056 -0.646411
2003-04-01 07:50:47 51°18.879 2°43.661 17.671085 1.147421 7.680056 -0.646411
2003-04-01 07:50:52 51°18.876 2°43.661 17.775563 1.147421 7.680056 -0.646411
2003-04-01 07:50:57 51°18.874 2°43.661 17.502015 1.147421 7.680056 -0.680121
2003-04-01 07:51:01 51°18.873 2°43.661 17.537573 1.147316 7.679435 -0.646411
2003-04-01 07:51:07 51°18.869 2°43.662 17.745812 1.147421 7.680192 -0.680121
2003-04-01 07:51:12 51°18.866 2°43.662 17.405733 1.147421 7.680327 -0.646411
2003-04-01 07:51:17 51°18.863 2°43.662 17.405733 1.147421 7.680327 -0.646411
2003-04-01 07:51:21 51°18.86 2°43.662 17.166589 1.147316 7.679435 -0.680121
2003-04-01 07:51:27 51°18.855 2°43.662 18.670788 1.147211 7.678814 -0.680121
2003-04-01 07:51:32 51°18.85 2°43.661 17.446168 1.147211 7.678814 -0.646411
2003-04-01 07:51:37 51°18.845 2°43.659 17.550357 1.147002 7.677301 -0.646411
2003-04-01 07:51:42 51°18.84 2°43.657 17.414721 1.147316 7.6793 -0.646411
2003-04-01 07:51:47 51°18.835 2°43.654 17.414721 1.147316 7.6793 -0.646411
2003-04-01 07:51:52 51°18.83 2°43.651 17.382251 1.147107 7.677787 -0.680121
2003-04-01 07:51:57 51°18.825 2°43.646 17.417618 1.147107 7.677787 -0.646411
2003-04-01 07:52:01 51°18.821 2°43.642 17.384646 1.147211 7.678544 -0.646411
2003-04-01 07:52:07 51°18.815 2°43.635 17.968342 1.147107 7.677787 -0.646411
2003-04-01 07:52:12 51°18.81 2°43.628 17.283109 1.147002 7.677031 -0.680121
2003-04-01 07:52:17 51°18.806 2°43.62 17.283109 1.147002 7.677031 -0.680121
2003-04-01 07:52:22 51°18.801 2°43.612 17.627349 1.147002 7.677031 -0.646411
2003-04-01 07:52:27 51°18.797 2°43.603 17.456367 1.147107 7.677923 -0.646411
2003-04-01 07:52:31 51°18.794 2°43.595 17.28475 1.147002 7.677301 -0.646411
2003-04-01 07:52:37 51°18.79 2°43.582 17.80029 1.146897 7.676816 -0.646411
2003-04-01 07:52:41 51°18.788 2°43.574 17.147578 1.147002 7.677707 -0.646411
2003-04-01 07:52:47 51°18.784 2°43.56 17.147578 1.147002 7.677707 -0.646411
2003-04-01 07:52:51 51°18.783 2°43.55 17.526631 1.147002 7.677978 -0.646411
2003-04-01 07:52:57 51°18.78 2°43.535 17.424001 1.147002 7.678248 -0.646411
2003-04-01 07:53:01 51°18.779 2°43.525 17.458885 1.146897 7.677763 -0.680121
2003-04-01 07:53:07 51°18.777 2°43.509 17.768085 1.146897 7.678304 -0.612702
2003-04-01 07:53:12 51°18.775 2°43.496 17.59787 1.146792 7.677953 -0.646411
2003-04-01 07:53:17 51°18.773 2°43.482 17.59787 1.146792 7.677953 -0.646411
2003-04-01 07:53:22 51°18.771 2°43.467 17.323321 1.146792 7.678359 -0.646411
2003-04-01 07:53:27 51°18.769 2°43.452 17.35813 1.146793 7.67863 -0.646411
2003-04-01 07:53:32 51°18.768 2°43.437 17.461739 1.146688 7.678008 -0.646411
2003-04-01 07:53:37 51°18.766 2°43.421 17.290051 1.146688 7.678279 -0.646411
2003-04-01 07:53:41 51°18.765 2°43.408 17.737369 1.146688 7.67855 -0.646411
2003-04-01 07:53:47 51°18.763 2°43.389 17.737369 1.146688 7.67855 -0.646411
2003-04-01 07:53:52 51°18.761 2°43.372 17.325802 1.146688 7.678415 -0.646411
2003-04-01 07:53:57 51°18.759 2°43.355 17.498366 1.146688 7.67855 -0.646411
2003-04-01 07:54:03 51°18.757 2°43.335 17.327652 1.146688 7.678415 -0.646411
2003-04-01 07:54:07 51°18.756 2°43.321 17.500463 1.146583 7.677523 -0.646411
2003-04-01 07:54:12 51°18.754 2°43.304 17.774435 1.146688 7.678415 -0.612702
2003-04-01 07:54:17 51°18.752 2°43.287 17.774435 1.146688 7.678415 -0.612702
2003-04-01 07:54:23 51°18.75 2°43.266 17.570472 1.146583 7.677658 -0.646411
2003-04-01 07:54:27 51°18.749 2°43.251 17.364392 1.146583 7.677523 -0.646411
2003-04-01 07:54:32 51°18.747 2°43.234 17.469377 1.146478 7.676766 -0.646411
2003-04-01 07:54:37 51°18.745 2°43.216 17.538621 1.146478 7.676766 -0.646411
2003-04-01 07:54:43 51°18.743 2°43.195 18.221755 1.146583 7.677523 -0.680121
2003-04-01 07:54:47 51°18.741 2°43.18 18.221755 1.146583 7.677523 -0.680121
2003-04-01 07:54:52 51°18.739 2°43.163 17.915705 1.146583 7.677387 -0.680121
2003-04-01 07:54:57 51°18.737 2°43.145 17.917832 1.146478 7.676766 -0.680121
2003-04-01 07:55:02 51°18.735 2°43.126 17.575123 1.146478 7.676766 -0.680121
2003-04-01 07:55:07 51°18.733 2°43.108 17.404767 1.146478 7.676495 -0.680121
2003-04-01 07:55:12 51°18.731 2°43.091 17.473447 1.146374 7.675739 -0.646411
2003-04-01 07:55:17 51°18.73 2°43.072 17.473447 1.146374 7.675739 -0.646411
2003-04-01 07:55:21 51°18.728 2°43.057 17.508348 1.146478 7.676495 -0.646411
2003-04-01 07:55:27 51°18.726 2°43.036 18.092045 1.146478 7.676495 -0.680121
2003-04-01 07:55:32 51°18.725 2°43.018 17.20034 1.146374 7.675874 -0.646411
2003-04-01 07:55:37 51°18.723 2°42.999 17.716926 1.146374 7.675874 -0.680121
2003-04-01 07:55:42 51°18.721 2°42.981 17.201898 1.146269 7.675253 -0.680121
2003-04-01 07:55:47 51°18.719 2°42.963 17.201898 1.146269 7.675253 -0.680121